DHL749 EDDF-KLAX
Flight info
| Callsign | DHL749 |
|---|---|
| Flight time | 10h 38m |
| Altitude | 34000 |
| Route | OBOKA5G OBOKA Z28 DIBIR DCT BUDIP DCT MIMVA L602 NALAX L46 ESHIN N110 ERKIT DCT NAVSO/N0468F360 DCT GOMUP/M082F360 DCT 59N020W 61N030W 62N040W 63N050W DCT LIBOR N974B GRIBS/N0479F360 N974B JELCO/N0480F380 DCT GOSEP DCT YTL DCT EPVIV DCT KUBLE/N0464F400 DCT BOJOL DCT DRRSI DCT EHK DCT LAKRR Q88 HAKMN ANJLL4 |
| Aircraft | A346/H-SDE2E3FGHIJ3J4J5M1RWXY/LB1D1 |
Departure
| Time | 2026-05-07 04:00 |
|---|---|
| Airport | Frankfurt Main Airport (EDDF) |
Arrival
| Time | 2026-05-07 14:38 |
|---|---|
| Airport | Los Angeles International Airport (KLAX) |
| Time | Latitude | Longitude | Altitude | Speed | Heading |
|---|---|---|---|---|---|
| 2026-05-07 03:22 | 50.04723 | 8.56277 | 370 ft | 0 kts | 340° |
| 2026-05-07 03:44 | 50.04711 | 8.56284 | 368 ft | 0 kts | 340° |
| 2026-05-07 03:44 | 50.04686 | 8.56298 | 368 ft | 0 kts | 340° |
| 2026-05-07 03:44 | 50.04660 | 8.56313 | 370 ft | 0 kts | 340° |
| 2026-05-07 03:44 | 50.04647 | 8.56317 | 371 ft | 0 kts | 358° |
| 2026-05-07 03:45 | 50.04646 | 8.56317 | 371 ft | 0 kts | 359° |
| 2026-05-07 03:45 | 50.04638 | 8.56315 | 370 ft | 0 kts | 249° |
| 2026-05-07 03:51 | 50.04635 | 8.56302 | 371 ft | 2 kts | 249° |
| 2026-05-07 03:51 | 50.04626 | 8.56264 | 366 ft | 5 kts | 249° |
| 2026-05-07 03:51 | 50.04610 | 8.56197 | 369 ft | 8 kts | 249° |
| 2026-05-07 03:52 | 50.04587 | 8.56102 | 368 ft | 11 kts | 249° |
| 2026-05-07 03:52 | 50.04549 | 8.55994 | 368 ft | 12 kts | 218° |
| 2026-05-07 03:52 | 50.04468 | 8.55932 | 369 ft | 13 kts | 199° |
| 2026-05-07 03:52 | 50.04372 | 8.55921 | 368 ft | 15 kts | 172° |
| 2026-05-07 03:53 | 50.04262 | 8.55938 | 362 ft | 17 kts | 184° |
| 2026-05-07 03:53 | 50.04145 | 8.55945 | 365 ft | 14 kts | 159° |
| 2026-05-07 03:53 | 50.04092 | 8.55986 | 367 ft | 9 kts | 135° |
| 2026-05-07 03:53 | 50.04085 | 8.56096 | 365 ft | 12 kts | 73° |
| 2026-05-07 03:54 | 50.04115 | 8.56228 | 364 ft | 14 kts | 69° |
| 2026-05-07 03:54 | 50.04157 | 8.56404 | 367 ft | 18 kts | 70° |
| 2026-05-07 03:54 | 50.04205 | 8.56604 | 368 ft | 21 kts | 69° |
| 2026-05-07 03:54 | 50.04259 | 8.56829 | 370 ft | 23 kts | 69° |
| 2026-05-07 03:55 | 50.04318 | 8.57076 | 372 ft | 25 kts | 69° |
| 2026-05-07 03:55 | 50.04382 | 8.57345 | 373 ft | 27 kts | 70° |
| 2026-05-07 03:55 | 50.04452 | 8.57638 | 375 ft | 29 kts | 70° |
| 2026-05-07 03:55 | 50.04519 | 8.57921 | 375 ft | 21 kts | 70° |
| 2026-05-07 03:56 | 50.04563 | 8.58105 | 372 ft | 17 kts | 70° |
| 2026-05-07 03:56 | 50.04603 | 8.58275 | 379 ft | 16 kts | 70° |
| 2026-05-07 03:56 | 50.04641 | 8.58436 | 378 ft | 16 kts | 70° |
| 2026-05-07 03:56 | 50.04681 | 8.58603 | 378 ft | 17 kts | 70° |
| 2026-05-07 03:57 | 50.04696 | 8.58669 | 380 ft | 2 kts | 75° |
| 2026-05-07 03:57 | 50.04691 | 8.58711 | 381 ft | 5 kts | 129° |
| 2026-05-07 03:57 | 50.04644 | 8.58746 | 382 ft | 11 kts | 176° |
| 2026-05-07 03:57 | 50.04560 | 8.58689 | 383 ft | 14 kts | 215° |
| 2026-05-07 03:58 | 50.04486 | 8.58583 | 383 ft | 15 kts | 241° |
| 2026-05-07 03:58 | 50.04464 | 8.58494 | 379 ft | 0 kts | 250° |
| 2026-05-07 03:59 | 50.04428 | 8.58342 | 382 ft | 44 kts | 250° |
| 2026-05-07 03:59 | 50.04244 | 8.57570 | 374 ft | 105 kts | 250° |
| 2026-05-07 03:59 | 50.03914 | 8.56188 | 362 ft | 157 kts | 249° |
| 2026-05-07 03:59 | 50.03481 | 8.54382 | 427 ft | 188 kts | 250° |
| 2026-05-07 04:00 | 50.03016 | 8.52553 | 1161 ft | 179 kts | 251° |
| 2026-05-07 04:00 | 50.02547 | 8.50729 | 1685 ft | 185 kts | 250° |
| 2026-05-07 04:00 | 50.02051 | 8.48839 | 2153 ft | 193 kts | 250° |
| 2026-05-07 04:00 | 50.01539 | 8.46807 | 2540 ft | 208 kts | 258° |
| 2026-05-07 04:01 | 50.01623 | 8.44562 | 2894 ft | 217 kts | 295° |
| 2026-05-07 04:01 | 50.02367 | 8.42406 | 3278 ft | 234 kts | 303° |
| 2026-05-07 04:01 | 50.03265 | 8.40127 | 3730 ft | 252 kts | 302° |
| 2026-05-07 04:01 | 50.04168 | 8.37733 | 4340 ft | 261 kts | 301° |
| 2026-05-07 04:02 | 50.05064 | 8.35241 | 5149 ft | 262 kts | 300° |
| 2026-05-07 04:02 | 50.05939 | 8.32733 | 5936 ft | 264 kts | 300° |
| 2026-05-07 04:02 | 50.06810 | 8.30192 | 6700 ft | 267 kts | 300° |
| 2026-05-07 04:02 | 50.07687 | 8.27605 | 7445 ft | 271 kts | 300° |
| 2026-05-07 04:03 | 50.08567 | 8.24990 | 8171 ft | 274 kts | 300° |
| 2026-05-07 04:03 | 50.09454 | 8.22345 | 8901 ft | 276 kts | 300° |
| 2026-05-07 04:03 | 50.10344 | 8.19687 | 9631 ft | 277 kts | 300° |
| 2026-05-07 04:03 | 50.11239 | 8.17008 | 10238 ft | 282 kts | 299° |
| 2026-05-07 04:04 | 50.12167 | 8.14219 | 10540 ft | 297 kts | 299° |
| 2026-05-07 04:04 | 50.13145 | 8.11284 | 10821 ft | 312 kts | 298° |
| 2026-05-07 04:04 | 50.14169 | 8.08203 | 11118 ft | 327 kts | 298° |
| 2026-05-07 04:04 | 50.15237 | 8.04976 | 11382 ft | 342 kts | 298° |
| 2026-05-07 04:05 | 50.16351 | 8.01601 | 11658 ft | 357 kts | 298° |
| 2026-05-07 04:05 | 50.17509 | 7.98093 | 12006 ft | 368 kts | 298° |
| 2026-05-07 04:05 | 50.18689 | 7.94519 | 12639 ft | 371 kts | 297° |
| 2026-05-07 04:05 | 50.19873 | 7.90936 | 13344 ft | 372 kts | 296° |
| 2026-05-07 04:06 | 50.21059 | 7.87337 | 13979 ft | 374 kts | 296° |
| 2026-05-07 04:06 | 50.22253 | 7.83699 | 14546 ft | 378 kts | 295° |
| 2026-05-07 04:06 | 50.23458 | 7.80018 | 15077 ft | 382 kts | 295° |
| 2026-05-07 04:06 | 50.24837 | 7.76420 | 15542 ft | 391 kts | 305° |
| 2026-05-07 04:07 | 50.26829 | 7.73333 | 16058 ft | 401 kts | 320° |
| 2026-05-07 04:07 | 50.29258 | 7.71109 | 16542 ft | 411 kts | 332° |
| 2026-05-07 04:07 | 50.31903 | 7.69283 | 16987 ft | 417 kts | 333° |
| 2026-05-07 04:07 | 50.34594 | 7.67489 | 17367 ft | 424 kts | 334° |
| 2026-05-07 04:08 | 50.37294 | 7.65679 | 17763 ft | 430 kts | 333° |
| 2026-05-07 04:08 | 50.40054 | 7.63797 | 18178 ft | 436 kts | 334° |
| 2026-05-07 04:08 | 50.42849 | 7.61879 | 18570 ft | 441 kts | 334° |
| 2026-05-07 04:08 | 50.45675 | 7.59936 | 18999 ft | 446 kts | 334° |
| 2026-05-07 04:09 | 50.48531 | 7.57966 | 19414 ft | 450 kts | 334° |
| 2026-05-07 04:09 | 50.51414 | 7.55975 | 19815 ft | 455 kts | 334° |
| 2026-05-07 04:09 | 50.54294 | 7.53869 | 20245 ft | 458 kts | 332° |
| 2026-05-07 04:09 | 50.57116 | 7.51488 | 20636 ft | 462 kts | 328° |
| 2026-05-07 04:10 | 50.59868 | 7.48829 | 21046 ft | 466 kts | 326° |
| 2026-05-07 04:10 | 50.62597 | 7.46037 | 21419 ft | 470 kts | 326° |
| 2026-05-07 04:10 | 50.65347 | 7.43194 | 21804 ft | 474 kts | 326° |
| 2026-05-07 04:10 | 50.68121 | 7.40332 | 22190 ft | 478 kts | 327° |
| 2026-05-07 04:11 | 50.70908 | 7.37446 | 22596 ft | 481 kts | 326° |
| 2026-05-07 04:11 | 50.73556 | 7.34181 | 22999 ft | 484 kts | 319° |
| 2026-05-07 04:11 | 50.75926 | 7.30386 | 23420 ft | 487 kts | 311° |
| 2026-05-07 04:11 | 50.78006 | 7.26130 | 23838 ft | 490 kts | 307° |
| 2026-05-07 04:12 | 50.79969 | 7.21719 | 24243 ft | 492 kts | 306° |
| 2026-05-07 04:12 | 50.81923 | 7.17243 | 24618 ft | 494 kts | 306° |
| 2026-05-07 04:12 | 50.83883 | 7.12765 | 24999 ft | 496 kts | 307° |
| 2026-05-07 04:12 | 50.85864 | 7.08269 | 25414 ft | 498 kts | 308° |
| 2026-05-07 04:13 | 50.87852 | 7.03775 | 25847 ft | 498 kts | 308° |
| 2026-05-07 04:13 | 50.89842 | 6.99289 | 26268 ft | 498 kts | 308° |
| 2026-05-07 04:13 | 50.91834 | 6.94790 | 26681 ft | 498 kts | 309° |
| 2026-05-07 04:13 | 50.93826 | 6.90285 | 27119 ft | 498 kts | 309° |
| 2026-05-07 04:14 | 50.95811 | 6.85786 | 27658 ft | 495 kts | 309° |
| 2026-05-07 04:14 | 50.97770 | 6.81334 | 28328 ft | 488 kts | 309° |
| 2026-05-07 04:14 | 50.99694 | 6.76956 | 29082 ft | 479 kts | 310° |
| 2026-05-07 04:14 | 51.01589 | 6.72645 | 29682 ft | 475 kts | 310° |
| 2026-05-07 04:15 | 51.03478 | 6.68345 | 30090 ft | 474 kts | 310° |
| 2026-05-07 04:15 | 51.05364 | 6.64042 | 30439 ft | 474 kts | 310° |
| 2026-05-07 04:15 | 51.07249 | 6.59731 | 30782 ft | 474 kts | 309° |
| 2026-05-07 04:15 | 51.09141 | 6.55392 | 31143 ft | 474 kts | 309° |
| 2026-05-07 04:16 | 51.11016 | 6.51080 | 31524 ft | 473 kts | 309° |
| 2026-05-07 04:16 | 51.12885 | 6.46776 | 31878 ft | 472 kts | 309° |
| 2026-05-07 04:16 | 51.14748 | 6.42478 | 32193 ft | 472 kts | 309° |
| 2026-05-07 04:16 | 51.16617 | 6.38164 | 32464 ft | 473 kts | 309° |
| 2026-05-07 04:17 | 51.18487 | 6.33838 | 32695 ft | 474 kts | 309° |
| 2026-05-07 04:17 | 51.20370 | 6.29475 | 32953 ft | 475 kts | 309° |
| 2026-05-07 04:17 | 51.22249 | 6.25116 | 33208 ft | 476 kts | 309° |
| 2026-05-07 04:17 | 51.24124 | 6.20754 | 33450 ft | 477 kts | 309° |
| 2026-05-07 04:18 | 51.26002 | 6.16377 | 33687 ft | 478 kts | 309° |
| 2026-05-07 04:18 | 51.29733 | 6.07537 | 33734 ft | 480 kts | 308° |
| 2026-05-07 04:19 | 51.33353 | 5.98642 | 33747 ft | 480 kts | 308° |
| 2026-05-07 04:19 | 51.37269 | 5.90046 | 33747 ft | 476 kts | 314° |
| 2026-05-07 04:20 | 51.41697 | 5.82214 | 33747 ft | 472 kts | 320° |
| 2026-05-07 04:20 | 51.46517 | 5.75115 | 33746 ft | 470 kts | 323° |
| 2026-05-07 04:21 | 51.53867 | 5.64689 | 33746 ft | 470 kts | 323° |
| 2026-05-07 04:21 | 51.58760 | 5.57708 | 33746 ft | 470 kts | 323° |
| 2026-05-07 04:22 | 51.63644 | 5.50710 | 33746 ft | 470 kts | 323° |
| 2026-05-07 04:22 | 51.68524 | 5.43695 | 33748 ft | 470 kts | 323° |
| 2026-05-07 04:23 | 51.73398 | 5.36664 | 33743 ft | 470 kts | 323° |
| 2026-05-07 04:23 | 51.78271 | 5.29614 | 33746 ft | 470 kts | 323° |
| 2026-05-07 04:24 | 51.83136 | 5.22553 | 33745 ft | 470 kts | 323° |
| 2026-05-07 04:24 | 51.87998 | 5.15476 | 33743 ft | 470 kts | 323° |
| 2026-05-07 04:25 | 51.92858 | 5.08380 | 33746 ft | 470 kts | 323° |
| 2026-05-07 04:25 | 51.97725 | 5.01251 | 33747 ft | 470 kts | 322° |
| 2026-05-07 04:26 | 52.02568 | 4.94137 | 33745 ft | 470 kts | 322° |
| 2026-05-07 04:26 | 52.07416 | 4.86993 | 33746 ft | 470 kts | 322° |
| 2026-05-07 04:27 | 52.12255 | 4.79841 | 33746 ft | 470 kts | 322° |
| 2026-05-07 04:27 | 52.17097 | 4.72663 | 33745 ft | 470 kts | 322° |
| 2026-05-07 04:28 | 52.21932 | 4.65473 | 33749 ft | 470 kts | 322° |
| 2026-05-07 04:28 | 52.26760 | 4.58270 | 33747 ft | 470 kts | 322° |
| 2026-05-07 04:29 | 52.31588 | 4.51047 | 33750 ft | 470 kts | 322° |
| 2026-05-07 04:29 | 52.36411 | 4.43807 | 33747 ft | 470 kts | 322° |
| 2026-05-07 04:30 | 52.41227 | 4.36558 | 33746 ft | 470 kts | 322° |
| 2026-05-07 04:30 | 52.46008 | 4.29336 | 33746 ft | 470 kts | 322° |
| 2026-05-07 04:31 | 52.50833 | 4.22027 | 33748 ft | 470 kts | 322° |
| 2026-05-07 04:31 | 52.55638 | 4.14724 | 33746 ft | 470 kts | 322° |
| 2026-05-07 04:32 | 52.60440 | 4.07404 | 33743 ft | 470 kts | 322° |
| 2026-05-07 04:32 | 52.65238 | 4.00065 | 33747 ft | 470 kts | 322° |
| 2026-05-07 04:33 | 52.70028 | 3.92716 | 33745 ft | 470 kts | 322° |
| 2026-05-07 04:33 | 52.74815 | 3.85350 | 33745 ft | 470 kts | 322° |
| 2026-05-07 04:34 | 52.79600 | 3.77962 | 33743 ft | 470 kts | 322° |
| 2026-05-07 04:34 | 52.84379 | 3.70563 | 33746 ft | 470 kts | 322° |
| 2026-05-07 04:35 | 52.88352 | 3.64393 | 33743 ft | 470 kts | 321° |
| 2026-05-07 04:35 | 52.93124 | 3.56960 | 33750 ft | 471 kts | 321° |
| 2026-05-07 04:36 | 52.97890 | 3.49513 | 33746 ft | 471 kts | 321° |
| 2026-05-07 04:36 | 53.02644 | 3.42041 | 33743 ft | 471 kts | 320° |
| 2026-05-07 04:37 | 53.06897 | 3.33639 | 33742 ft | 479 kts | 309° |
| 2026-05-07 04:37 | 53.10194 | 3.23913 | 33747 ft | 486 kts | 298° |
| 2026-05-07 04:38 | 53.12373 | 3.13164 | 33745 ft | 494 kts | 288° |
| 2026-05-07 04:38 | 53.13864 | 3.01996 | 33746 ft | 493 kts | 286° |
| 2026-05-07 04:39 | 53.15301 | 2.90823 | 33746 ft | 493 kts | 286° |
| 2026-05-07 04:39 | 53.16749 | 2.79646 | 33745 ft | 493 kts | 287° |
| 2026-05-07 04:40 | 53.18196 | 2.68469 | 33744 ft | 493 kts | 286° |
| 2026-05-07 04:40 | 53.19634 | 2.57278 | 33741 ft | 493 kts | 286° |
| 2026-05-07 04:41 | 53.21060 | 2.46078 | 33745 ft | 493 kts | 286° |
| 2026-05-07 04:41 | 53.22471 | 2.34865 | 33744 ft | 493 kts | 286° |
| 2026-05-07 04:42 | 53.23870 | 2.23650 | 33744 ft | 493 kts | 286° |
| 2026-05-07 04:42 | 53.25250 | 2.12503 | 33748 ft | 493 kts | 286° |
| 2026-05-07 04:43 | 53.26629 | 2.01272 | 33744 ft | 493 kts | 286° |
| 2026-05-07 04:43 | 53.27997 | 1.90043 | 33743 ft | 493 kts | 285° |
| 2026-05-07 04:44 | 53.29355 | 1.78798 | 33746 ft | 493 kts | 285° |
| 2026-05-07 04:44 | 53.30704 | 1.67541 | 33746 ft | 493 kts | 285° |
| 2026-05-07 04:45 | 53.32041 | 1.56269 | 33748 ft | 493 kts | 285° |
| 2026-05-07 04:45 | 53.33519 | 1.45071 | 33747 ft | 492 kts | 288° |
| 2026-05-07 04:46 | 53.35141 | 1.33946 | 33746 ft | 492 kts | 288° |
| 2026-05-07 04:46 | 53.36758 | 1.22803 | 33751 ft | 492 kts | 288° |
| 2026-05-07 04:47 | 53.38359 | 1.11651 | 33748 ft | 492 kts | 288° |
| 2026-05-07 04:47 | 53.39946 | 1.00496 | 33744 ft | 492 kts | 288° |
| 2026-05-07 04:48 | 53.41522 | 0.89334 | 33753 ft | 492 kts | 288° |
| 2026-05-07 04:48 | 53.43090 | 0.78151 | 33746 ft | 492 kts | 287° |
| 2026-05-07 04:49 | 53.44646 | 0.66961 | 33745 ft | 492 kts | 287° |
| 2026-05-07 04:49 | 53.46208 | 0.55775 | 33742 ft | 491 kts | 289° |
| 2026-05-07 04:50 | 53.48322 | 0.44925 | 33743 ft | 486 kts | 297° |
| 2026-05-07 04:50 | 53.51252 | 0.34747 | 33751 ft | 481 kts | 304° |
| 2026-05-07 04:51 | 53.54916 | 0.25406 | 33745 ft | 476 kts | 311° |
| 2026-05-07 04:51 | 53.58901 | 0.16585 | 33750 ft | 476 kts | 312° |
| 2026-05-07 04:52 | 53.62925 | 0.07712 | 33743 ft | 476 kts | 312° |
| 2026-05-07 04:52 | 53.66934 | -0.01192 | 33750 ft | 476 kts | 312° |
| 2026-05-07 04:53 | 53.70932 | -0.10123 | 33747 ft | 476 kts | 312° |
| 2026-05-07 04:53 | 53.74922 | -0.19074 | 33743 ft | 477 kts | 311° |
| 2026-05-07 04:54 | 53.78906 | -0.28041 | 33743 ft | 477 kts | 311° |
| 2026-05-07 04:54 | 53.82885 | -0.37032 | 33744 ft | 477 kts | 311° |
| 2026-05-07 04:55 | 53.86856 | -0.46036 | 33742 ft | 477 kts | 311° |
| 2026-05-07 04:55 | 53.90820 | -0.55055 | 33744 ft | 477 kts | 311° |
| 2026-05-07 04:56 | 53.94783 | -0.64106 | 33749 ft | 477 kts | 311° |
| 2026-05-07 04:56 | 53.98742 | -0.73180 | 33742 ft | 478 kts | 311° |
| 2026-05-07 04:57 | 54.02693 | -0.82273 | 33749 ft | 478 kts | 311° |
| 2026-05-07 04:57 | 54.06598 | -0.91436 | 33747 ft | 477 kts | 310° |
| 2026-05-07 04:58 | 54.10469 | -1.00633 | 33747 ft | 478 kts | 310° |
| 2026-05-07 04:58 | 54.14312 | -1.09787 | 33747 ft | 478 kts | 310° |
| 2026-05-07 04:59 | 54.18206 | -1.19087 | 33745 ft | 478 kts | 310° |
| 2026-05-07 04:59 | 54.22042 | -1.28281 | 33743 ft | 478 kts | 310° |
| 2026-05-07 05:00 | 54.25897 | -1.37553 | 33745 ft | 478 kts | 310° |
| 2026-05-07 05:00 | 54.29743 | -1.46837 | 33745 ft | 478 kts | 310° |
| 2026-05-07 05:01 | 54.33583 | -1.56143 | 33745 ft | 478 kts | 310° |
| 2026-05-07 05:01 | 54.37417 | -1.65468 | 33744 ft | 478 kts | 310° |
| 2026-05-07 05:02 | 54.41242 | -1.74804 | 33745 ft | 478 kts | 310° |
| 2026-05-07 05:02 | 54.45072 | -1.84191 | 33742 ft | 480 kts | 310° |
| 2026-05-07 05:03 | 54.48899 | -1.93603 | 33750 ft | 480 kts | 310° |
| 2026-05-07 05:03 | 54.52716 | -2.03028 | 33750 ft | 480 kts | 309° |
| 2026-05-07 05:04 | 54.56529 | -2.12477 | 33749 ft | 480 kts | 309° |
| 2026-05-07 05:04 | 54.60336 | -2.21948 | 33745 ft | 480 kts | 309° |
| 2026-05-07 05:05 | 54.64146 | -2.31461 | 33749 ft | 482 kts | 309° |
| 2026-05-07 05:05 | 54.67953 | -2.41006 | 33748 ft | 482 kts | 309° |
| 2026-05-07 05:06 | 54.71756 | -2.50578 | 33750 ft | 483 kts | 309° |
| 2026-05-07 05:06 | 54.75551 | -2.60165 | 33749 ft | 481 kts | 309° |
| 2026-05-07 05:07 | 54.79319 | -2.69725 | 33745 ft | 479 kts | 309° |
| 2026-05-07 05:07 | 54.83072 | -2.79280 | 33747 ft | 479 kts | 309° |
| 2026-05-07 05:08 | 54.86818 | -2.88852 | 33746 ft | 478 kts | 309° |
| 2026-05-07 05:08 | 54.90551 | -2.98429 | 33749 ft | 478 kts | 309° |
| 2026-05-07 05:09 | 54.94273 | -3.08015 | 33744 ft | 478 kts | 309° |
| 2026-05-07 05:09 | 54.97992 | -3.17631 | 33748 ft | 478 kts | 309° |
| 2026-05-07 05:10 | 55.01699 | -3.27251 | 33749 ft | 478 kts | 309° |
| 2026-05-07 05:10 | 55.05404 | -3.36907 | 33742 ft | 478 kts | 308° |
| 2026-05-07 05:11 | 55.09100 | -3.46576 | 33744 ft | 479 kts | 308° |
| 2026-05-07 05:11 | 55.12772 | -3.56217 | 33745 ft | 479 kts | 308° |
| 2026-05-07 05:12 | 55.16456 | -3.65931 | 33743 ft | 479 kts | 308° |
| 2026-05-07 05:12 | 55.20135 | -3.75673 | 33747 ft | 479 kts | 308° |
| 2026-05-07 05:13 | 55.23675 | -3.85603 | 33747 ft | 481 kts | 305° |
| 2026-05-07 05:13 | 55.27004 | -3.95816 | 33745 ft | 483 kts | 304° |
| 2026-05-07 05:14 | 55.30316 | -4.06074 | 33754 ft | 484 kts | 304° |
| 2026-05-07 05:14 | 55.33634 | -4.16371 | 33747 ft | 484 kts | 304° |
| 2026-05-07 05:15 | 55.36943 | -4.26681 | 33745 ft | 483 kts | 304° |
| 2026-05-07 05:15 | 55.40239 | -4.36987 | 33746 ft | 483 kts | 304° |
| 2026-05-07 05:16 | 55.43527 | -4.47307 | 33746 ft | 482 kts | 304° |
| 2026-05-07 05:16 | 55.46799 | -4.57624 | 33743 ft | 481 kts | 304° |
| 2026-05-07 05:17 | 55.50059 | -4.67946 | 33746 ft | 481 kts | 304° |
| 2026-05-07 05:17 | 55.53307 | -4.78273 | 33746 ft | 481 kts | 304° |
| 2026-05-07 05:18 | 55.56549 | -4.88629 | 33745 ft | 481 kts | 303° |
| 2026-05-07 05:18 | 55.59784 | -4.99005 | 33743 ft | 481 kts | 303° |
| 2026-05-07 05:19 | 55.63009 | -5.09394 | 33749 ft | 481 kts | 303° |
| 2026-05-07 05:19 | 55.66226 | -5.19803 | 33746 ft | 482 kts | 303° |
| 2026-05-07 05:20 | 55.69442 | -5.30256 | 33744 ft | 483 kts | 303° |
| 2026-05-07 05:20 | 55.72649 | -5.40727 | 33745 ft | 482 kts | 303° |
| 2026-05-07 05:21 | 55.77437 | -5.56444 | 33747 ft | 482 kts | 303° |
| 2026-05-07 05:22 | 55.80619 | -5.66947 | 33743 ft | 482 kts | 303° |
| 2026-05-07 05:22 | 55.83787 | -5.77453 | 33748 ft | 481 kts | 303° |
| 2026-05-07 05:23 | 55.86414 | -5.86198 | 33747 ft | 481 kts | 303° |
| 2026-05-07 05:23 | 55.89568 | -5.96742 | 33748 ft | 482 kts | 303° |
| 2026-05-07 05:24 | 55.92726 | -6.07343 | 33745 ft | 483 kts | 302° |
| 2026-05-07 05:24 | 55.95864 | -6.17930 | 33746 ft | 482 kts | 302° |
| 2026-05-07 05:25 | 55.99498 | -6.30248 | 33747 ft | 482 kts | 302° |
| 2026-05-07 05:25 | 56.02106 | -6.39128 | 33745 ft | 482 kts | 302° |
| 2026-05-07 05:26 | 56.05215 | -6.49757 | 33746 ft | 482 kts | 302° |
| 2026-05-07 05:26 | 56.08314 | -6.60404 | 33745 ft | 482 kts | 302° |
| 2026-05-07 05:27 | 56.11407 | -6.71074 | 33746 ft | 482 kts | 302° |
| 2026-05-07 05:27 | 56.14487 | -6.81752 | 33744 ft | 482 kts | 302° |
| 2026-05-07 05:28 | 56.17561 | -6.92458 | 33743 ft | 482 kts | 302° |
| 2026-05-07 05:28 | 56.20625 | -7.03178 | 33745 ft | 482 kts | 302° |
| 2026-05-07 05:29 | 56.23682 | -7.13921 | 33749 ft | 482 kts | 302° |
| 2026-05-07 05:29 | 56.26727 | -7.24673 | 33746 ft | 482 kts | 302° |
| 2026-05-07 05:30 | 56.29763 | -7.35444 | 33746 ft | 482 kts | 302° |
| 2026-05-07 05:30 | 56.32792 | -7.46241 | 33749 ft | 482 kts | 301° |
| 2026-05-07 05:31 | 56.35810 | -7.57048 | 33745 ft | 482 kts | 301° |
| 2026-05-07 05:31 | 56.38798 | -7.67800 | 33742 ft | 482 kts | 301° |
| 2026-05-07 05:32 | 56.41800 | -7.78652 | 33746 ft | 482 kts | 301° |
| 2026-05-07 05:32 | 56.44792 | -7.89518 | 33745 ft | 482 kts | 301° |
| 2026-05-07 05:33 | 56.47775 | -8.00404 | 33745 ft | 482 kts | 301° |
| 2026-05-07 05:33 | 56.50747 | -8.11302 | 33745 ft | 482 kts | 301° |
| 2026-05-07 05:34 | 56.53711 | -8.22223 | 33750 ft | 482 kts | 301° |
| 2026-05-07 05:34 | 56.56664 | -8.33156 | 33748 ft | 482 kts | 301° |
| 2026-05-07 05:35 | 56.59609 | -8.44108 | 33746 ft | 482 kts | 301° |
| 2026-05-07 05:35 | 56.62545 | -8.55084 | 33749 ft | 483 kts | 301° |
| 2026-05-07 05:36 | 56.65469 | -8.66068 | 33745 ft | 483 kts | 300° |
| 2026-05-07 05:36 | 56.68388 | -8.77084 | 33749 ft | 483 kts | 300° |
| 2026-05-07 05:37 | 56.71294 | -8.88109 | 33748 ft | 483 kts | 300° |
| 2026-05-07 05:37 | 56.74192 | -8.99154 | 33745 ft | 483 kts | 300° |
| 2026-05-07 05:38 | 56.77081 | -9.10220 | 33742 ft | 483 kts | 300° |
| 2026-05-07 05:38 | 56.79939 | -9.21222 | 33745 ft | 483 kts | 300° |
| 2026-05-07 05:39 | 56.82820 | -9.32365 | 33745 ft | 483 kts | 300° |
| 2026-05-07 05:39 | 56.85639 | -9.43346 | 33744 ft | 465 kts | 300° |
| 2026-05-07 05:39 | 56.86987 | -9.48627 | 33738 ft | 450 kts | 300° |
| 2026-05-07 05:40 | 56.88291 | -9.53741 | 33739 ft | 436 kts | 300° |
| 2026-05-07 05:40 | 56.89554 | -9.58697 | 33733 ft | 422 kts | 300° |
| 2026-05-07 05:40 | 56.90774 | -9.63495 | 33731 ft | 408 kts | 301° |
| 2026-05-07 05:40 | 56.91950 | -9.68127 | 33733 ft | 393 kts | 301° |
| 2026-05-07 05:41 | 56.93080 | -9.72588 | 33731 ft | 378 kts | 301° |
| 2026-05-07 05:41 | 56.94164 | -9.76874 | 33731 ft | 362 kts | 301° |
| 2026-05-07 05:41 | 56.95203 | -9.80987 | 33621 ft | 350 kts | 301° |
| 2026-05-07 05:41 | 56.96227 | -9.85018 | 33016 ft | 353 kts | 302° |
| 2026-05-07 05:42 | 56.97301 | -9.89163 | 32105 ft | 367 kts | 302° |
| 2026-05-07 05:42 | 56.98433 | -9.93445 | 31237 ft | 378 kts | 302° |
| 2026-05-07 05:42 | 56.99566 | -9.97857 | 30546 ft | 386 kts | 300° |
| 2026-05-07 05:42 | 57.00659 | -10.02377 | 29968 ft | 388 kts | 300° |
| 2026-05-07 05:43 | 57.01773 | -10.06909 | 29397 ft | 391 kts | 300° |
| 2026-05-07 05:43 | 57.02902 | -10.11457 | 28973 ft | 389 kts | 300° |
| 2026-05-07 05:43 | 57.04019 | -10.15951 | 28610 ft | 385 kts | 300° |
| 2026-05-07 05:43 | 57.05141 | -10.20446 | 28097 ft | 394 kts | 300° |
| 2026-05-07 05:44 | 57.06322 | -10.25144 | 27970 ft | 410 kts | 300° |
| 2026-05-07 05:44 | 57.07536 | -10.30009 | 28138 ft | 418 kts | 300° |
| 2026-05-07 05:44 | 57.08757 | -10.34920 | 28319 ft | 426 kts | 300° |
| 2026-05-07 05:44 | 57.10000 | -10.39933 | 28479 ft | 434 kts | 300° |
| 2026-05-07 05:45 | 57.11250 | -10.44983 | 28655 ft | 441 kts | 300° |
| 2026-05-07 05:45 | 57.12531 | -10.50166 | 28814 ft | 448 kts | 300° |
| 2026-05-07 05:45 | 57.13833 | -10.55446 | 28983 ft | 456 kts | 299° |
| 2026-05-07 05:45 | 57.15152 | -10.60812 | 29126 ft | 463 kts | 299° |
| 2026-05-07 05:46 | 57.16489 | -10.66263 | 29278 ft | 470 kts | 299° |
| 2026-05-07 05:46 | 57.17845 | -10.71802 | 29430 ft | 477 kts | 299° |
| 2026-05-07 05:46 | 57.19218 | -10.77429 | 29566 ft | 484 kts | 299° |
| 2026-05-07 05:46 | 57.20607 | -10.83133 | 29727 ft | 490 kts | 298° |
| 2026-05-07 05:47 | 57.22001 | -10.88879 | 30021 ft | 493 kts | 298° |
| 2026-05-07 05:47 | 57.23398 | -10.94661 | 30431 ft | 492 kts | 298° |
| 2026-05-07 05:47 | 57.24799 | -11.00474 | 30907 ft | 490 kts | 298° |
| 2026-05-07 05:47 | 57.26180 | -11.06218 | 31355 ft | 489 kts | 298° |
| 2026-05-07 05:48 | 57.27540 | -11.11883 | 31770 ft | 488 kts | 298° |
| 2026-05-07 05:48 | 57.28913 | -11.17615 | 32168 ft | 487 kts | 298° |
| 2026-05-07 05:48 | 57.30283 | -11.23347 | 32552 ft | 486 kts | 298° |
| 2026-05-07 05:48 | 57.31667 | -11.29156 | 32938 ft | 485 kts | 298° |
| 2026-05-07 05:49 | 57.33007 | -11.34793 | 33299 ft | 485 kts | 298° |
| 2026-05-07 05:49 | 57.34363 | -11.40512 | 33649 ft | 484 kts | 298° |
| 2026-05-07 05:49 | 57.35716 | -11.46234 | 33739 ft | 484 kts | 298° |
| 2026-05-07 05:50 | 57.38413 | -11.57685 | 33746 ft | 484 kts | 298° |
| 2026-05-07 05:50 | 57.41098 | -11.69144 | 33747 ft | 484 kts | 298° |
| 2026-05-07 05:51 | 57.43771 | -11.80615 | 33742 ft | 484 kts | 298° |
| 2026-05-07 05:51 | 57.46434 | -11.92106 | 33747 ft | 484 kts | 298° |
| 2026-05-07 05:52 | 57.49085 | -12.03604 | 33748 ft | 484 kts | 298° |
| 2026-05-07 05:52 | 57.51726 | -12.15123 | 33749 ft | 484 kts | 297° |
| 2026-05-07 05:53 | 57.54359 | -12.26671 | 33745 ft | 484 kts | 297° |
| 2026-05-07 05:53 | 57.56981 | -12.38230 | 33745 ft | 484 kts | 297° |
| 2026-05-07 05:54 | 57.59592 | -12.49808 | 33745 ft | 484 kts | 297° |
| 2026-05-07 05:54 | 57.62193 | -12.61403 | 33749 ft | 484 kts | 297° |
| 2026-05-07 05:55 | 57.64785 | -12.73021 | 33746 ft | 484 kts | 297° |
| 2026-05-07 05:55 | 57.67364 | -12.84645 | 33747 ft | 484 kts | 297° |
| 2026-05-07 05:56 | 57.69934 | -12.96295 | 33744 ft | 484 kts | 297° |
| 2026-05-07 05:56 | 57.72492 | -13.07953 | 33745 ft | 484 kts | 297° |
| 2026-05-07 05:57 | 57.75041 | -13.19641 | 33744 ft | 484 kts | 297° |
| 2026-05-07 05:57 | 57.77578 | -13.31335 | 33745 ft | 484 kts | 297° |
| 2026-05-07 05:58 | 57.80108 | -13.43061 | 33745 ft | 484 kts | 296° |
| 2026-05-07 05:58 | 57.82624 | -13.54792 | 33746 ft | 484 kts | 296° |
| 2026-05-07 05:59 | 57.85131 | -13.66547 | 33748 ft | 484 kts | 296° |
| 2026-05-07 05:59 | 57.87627 | -13.78320 | 33751 ft | 484 kts | 296° |
| 2026-05-07 06:00 | 57.90112 | -13.90107 | 33744 ft | 484 kts | 296° |
| 2026-05-07 06:00 | 57.92586 | -14.01909 | 33744 ft | 484 kts | 296° |
| 2026-05-07 06:01 | 57.95033 | -14.13652 | 33744 ft | 485 kts | 296° |
| 2026-05-07 06:01 | 57.97486 | -14.25492 | 33744 ft | 485 kts | 296° |
| 2026-05-07 06:02 | 57.99927 | -14.37345 | 33745 ft | 485 kts | 296° |
| 2026-05-07 06:02 | 58.02357 | -14.49210 | 33746 ft | 485 kts | 296° |
| 2026-05-07 06:03 | 58.04777 | -14.61097 | 33750 ft | 485 kts | 295° |
| 2026-05-07 06:03 | 58.07187 | -14.73010 | 33747 ft | 485 kts | 295° |
| 2026-05-07 06:04 | 58.09585 | -14.84933 | 33742 ft | 485 kts | 295° |
| 2026-05-07 06:04 | 58.11975 | -14.96882 | 33752 ft | 485 kts | 295° |
| 2026-05-07 06:05 | 58.14351 | -15.08839 | 33748 ft | 485 kts | 295° |
| 2026-05-07 06:05 | 58.16716 | -15.20815 | 33743 ft | 485 kts | 295° |
| 2026-05-07 06:06 | 58.19072 | -15.32812 | 33744 ft | 485 kts | 295° |
| 2026-05-07 06:06 | 58.21416 | -15.44825 | 33745 ft | 485 kts | 295° |
| 2026-05-07 06:07 | 58.23748 | -15.56849 | 33746 ft | 485 kts | 295° |
| 2026-05-07 06:07 | 58.26072 | -15.68903 | 33744 ft | 485 kts | 295° |
| 2026-05-07 06:08 | 58.28381 | -15.80958 | 33744 ft | 485 kts | 294° |
| 2026-05-07 06:08 | 58.30682 | -15.93045 | 33745 ft | 485 kts | 294° |
| 2026-05-07 06:09 | 58.32969 | -16.05134 | 33747 ft | 485 kts | 294° |
| 2026-05-07 06:09 | 58.35246 | -16.17247 | 33748 ft | 485 kts | 294° |
| 2026-05-07 06:10 | 58.37512 | -16.29377 | 33746 ft | 485 kts | 294° |
| 2026-05-07 06:10 | 58.39768 | -16.41530 | 33752 ft | 485 kts | 294° |
| 2026-05-07 06:11 | 58.41633 | -16.51635 | 33746 ft | 485 kts | 294° |
| 2026-05-07 06:11 | 58.43867 | -16.63813 | 33752 ft | 486 kts | 294° |
| 2026-05-07 06:12 | 58.46090 | -16.76012 | 33749 ft | 486 kts | 294° |
| 2026-05-07 06:12 | 58.48300 | -16.88216 | 33748 ft | 486 kts | 294° |
| 2026-05-07 06:13 | 58.50501 | -17.00445 | 33744 ft | 486 kts | 293° |
| 2026-05-07 06:13 | 58.52688 | -17.12681 | 33745 ft | 486 kts | 293° |
| 2026-05-07 06:14 | 58.54865 | -17.24943 | 33746 ft | 486 kts | 293° |
| 2026-05-07 06:14 | 58.57031 | -17.37223 | 33746 ft | 486 kts | 293° |
| 2026-05-07 06:15 | 58.59186 | -17.49517 | 33744 ft | 486 kts | 293° |
| 2026-05-07 06:15 | 58.61328 | -17.61827 | 33746 ft | 486 kts | 293° |
| 2026-05-07 06:16 | 58.63459 | -17.74153 | 33743 ft | 486 kts | 293° |
| 2026-05-07 06:16 | 58.65563 | -17.86406 | 33748 ft | 486 kts | 292° |
| 2026-05-07 06:17 | 58.67671 | -17.98763 | 33745 ft | 486 kts | 292° |
| 2026-05-07 06:17 | 58.69766 | -18.11132 | 33745 ft | 486 kts | 292° |
| 2026-05-07 06:18 | 58.71851 | -18.23519 | 33744 ft | 486 kts | 292° |
| 2026-05-07 06:18 | 58.73923 | -18.35925 | 33747 ft | 486 kts | 292° |
| 2026-05-07 06:19 | 58.75985 | -18.48352 | 33750 ft | 486 kts | 292° |
| 2026-05-07 06:19 | 58.78034 | -18.60786 | 33746 ft | 486 kts | 292° |
| 2026-05-07 06:20 | 58.80072 | -18.73241 | 33747 ft | 486 kts | 292° |
| 2026-05-07 06:20 | 58.82098 | -18.85714 | 33751 ft | 486 kts | 292° |
| 2026-05-07 06:21 | 58.84111 | -18.98193 | 33750 ft | 486 kts | 291° |
| 2026-05-07 06:21 | 58.86114 | -19.10699 | 33748 ft | 486 kts | 291° |
| 2026-05-07 06:22 | 58.88103 | -19.23212 | 33744 ft | 487 kts | 291° |
| 2026-05-07 06:22 | 58.91067 | -19.42020 | 33743 ft | 487 kts | 291° |
| 2026-05-07 06:23 | 58.93027 | -19.54575 | 33743 ft | 487 kts | 291° |
| 2026-05-07 06:23 | 58.94976 | -19.67149 | 33743 ft | 487 kts | 291° |
| 2026-05-07 06:24 | 58.96911 | -19.79734 | 33745 ft | 487 kts | 291° |
| 2026-05-07 06:24 | 58.98828 | -19.92241 | 33740 ft | 486 kts | 292° |
| 2026-05-07 06:25 | 59.01186 | -20.04577 | 33744 ft | 482 kts | 298° |
| 2026-05-07 06:25 | 59.04030 | -20.16251 | 33746 ft | 481 kts | 301° |
| 2026-05-07 06:26 | 59.06966 | -20.27944 | 33748 ft | 481 kts | 301° |
| 2026-05-07 06:26 | 59.09887 | -20.39660 | 33743 ft | 481 kts | 300° |
| 2026-05-07 06:27 | 59.12793 | -20.51408 | 33749 ft | 481 kts | 300° |
| 2026-05-07 06:27 | 59.15685 | -20.63172 | 33744 ft | 481 kts | 300° |
| 2026-05-07 06:28 | 59.18567 | -20.74965 | 33746 ft | 481 kts | 300° |
| 2026-05-07 06:28 | 59.21439 | -20.86780 | 33748 ft | 481 kts | 300° |
| 2026-05-07 06:29 | 59.24299 | -20.98611 | 33742 ft | 481 kts | 300° |
| 2026-05-07 06:29 | 59.27149 | -21.10469 | 33745 ft | 481 kts | 300° |
| 2026-05-07 06:30 | 59.29989 | -21.22346 | 33746 ft | 481 kts | 300° |
| 2026-05-07 06:30 | 59.32819 | -21.34243 | 33745 ft | 481 kts | 300° |
| 2026-05-07 06:31 | 59.35636 | -21.46158 | 33749 ft | 481 kts | 300° |
| 2026-05-07 06:31 | 59.38445 | -21.58100 | 33745 ft | 481 kts | 299° |
| 2026-05-07 06:32 | 59.41222 | -21.69975 | 33745 ft | 481 kts | 299° |
| 2026-05-07 06:32 | 59.44009 | -21.81955 | 33749 ft | 482 kts | 299° |
| 2026-05-07 06:33 | 59.46784 | -21.93954 | 33745 ft | 482 kts | 299° |
| 2026-05-07 06:33 | 59.49549 | -22.05975 | 33745 ft | 482 kts | 299° |
| 2026-05-07 06:34 | 59.52304 | -22.18019 | 33747 ft | 482 kts | 299° |
| 2026-05-07 06:34 | 59.55047 | -22.30082 | 33746 ft | 482 kts | 299° |
| 2026-05-07 06:35 | 59.57780 | -22.42166 | 33754 ft | 482 kts | 298° |
| 2026-05-07 06:35 | 59.60502 | -22.54275 | 33747 ft | 482 kts | 298° |
| 2026-05-07 06:36 | 59.63213 | -22.66402 | 33744 ft | 482 kts | 298° |
| 2026-05-07 06:36 | 59.65912 | -22.78542 | 33745 ft | 482 kts | 298° |
| 2026-05-07 06:37 | 59.68602 | -22.90714 | 33746 ft | 482 kts | 298° |
| 2026-05-07 06:37 | 59.71279 | -23.02899 | 33745 ft | 482 kts | 298° |
| 2026-05-07 06:38 | 59.73946 | -23.15109 | 33748 ft | 482 kts | 298° |
| 2026-05-07 06:38 | 59.76585 | -23.27262 | 33749 ft | 482 kts | 298° |
| 2026-05-07 06:39 | 59.79229 | -23.39508 | 33742 ft | 482 kts | 298° |
| 2026-05-07 06:39 | 59.81863 | -23.51782 | 33749 ft | 482 kts | 297° |
| 2026-05-07 06:40 | 59.84485 | -23.64068 | 33749 ft | 482 kts | 297° |
| 2026-05-07 06:40 | 59.87096 | -23.76379 | 33748 ft | 482 kts | 297° |
| 2026-05-07 06:41 | 59.89696 | -23.88712 | 33745 ft | 482 kts | 297° |
| 2026-05-07 06:41 | 59.92284 | -24.01063 | 33744 ft | 482 kts | 297° |
| 2026-05-07 06:42 | 59.94861 | -24.13434 | 33747 ft | 482 kts | 297° |
| 2026-05-07 06:42 | 59.97427 | -24.25830 | 33748 ft | 482 kts | 297° |
| 2026-05-07 06:43 | 59.99981 | -24.38241 | 33745 ft | 482 kts | 297° |
| 2026-05-07 06:43 | 60.02523 | -24.50668 | 33751 ft | 482 kts | 297° |
| 2026-05-07 06:44 | 60.05055 | -24.63123 | 33744 ft | 483 kts | 297° |
| 2026-05-07 06:44 | 60.07574 | -24.75593 | 33742 ft | 483 kts | 296° |
| 2026-05-07 06:45 | 60.10082 | -24.88081 | 33747 ft | 483 kts | 296° |
| 2026-05-07 06:45 | 60.12580 | -25.00601 | 33745 ft | 483 kts | 296° |
| 2026-05-07 06:46 | 60.15064 | -25.13129 | 33744 ft | 483 kts | 296° |
| 2026-05-07 06:46 | 60.17538 | -25.25684 | 33742 ft | 483 kts | 296° |
| 2026-05-07 06:47 | 60.19998 | -25.38252 | 33745 ft | 483 kts | 296° |
| 2026-05-07 06:47 | 60.22449 | -25.50846 | 33747 ft | 483 kts | 296° |
| 2026-05-07 06:48 | 60.24887 | -25.63457 | 33745 ft | 483 kts | 296° |
| 2026-05-07 06:48 | 60.27314 | -25.76094 | 33744 ft | 483 kts | 296° |
| 2026-05-07 06:49 | 60.29729 | -25.88745 | 33743 ft | 483 kts | 295° |
| 2026-05-07 06:49 | 60.32131 | -26.01412 | 33743 ft | 483 kts | 295° |
| 2026-05-07 06:50 | 60.34521 | -26.14101 | 33748 ft | 483 kts | 295° |
| 2026-05-07 06:50 | 60.36884 | -26.26726 | 33748 ft | 483 kts | 295° |
| 2026-05-07 06:51 | 60.39267 | -26.39541 | 33747 ft | 483 kts | 295° |
| 2026-05-07 06:51 | 60.41607 | -26.52205 | 33748 ft | 483 kts | 295° |
| 2026-05-07 06:52 | 60.43950 | -26.64977 | 33744 ft | 483 kts | 295° |
| 2026-05-07 06:52 | 60.46281 | -26.77763 | 33744 ft | 483 kts | 295° |
| 2026-05-07 06:53 | 60.48601 | -26.90575 | 33752 ft | 483 kts | 295° |
| 2026-05-07 06:53 | 60.50906 | -27.03392 | 33752 ft | 483 kts | 295° |
| 2026-05-07 06:54 | 60.53200 | -27.16236 | 33748 ft | 483 kts | 294° |
| 2026-05-07 06:54 | 60.55483 | -27.29101 | 33745 ft | 483 kts | 294° |
| 2026-05-07 06:55 | 60.57754 | -27.41991 | 33745 ft | 483 kts | 294° |
| 2026-05-07 06:55 | 60.60011 | -27.54889 | 33747 ft | 483 kts | 294° |
| 2026-05-07 06:56 | 60.62258 | -27.67816 | 33747 ft | 483 kts | 294° |
| 2026-05-07 06:56 | 60.64491 | -27.80754 | 33744 ft | 483 kts | 294° |
| 2026-05-07 06:57 | 60.66713 | -27.93717 | 33745 ft | 484 kts | 294° |
| 2026-05-07 06:57 | 60.68921 | -28.06690 | 33749 ft | 484 kts | 294° |
| 2026-05-07 06:58 | 60.71118 | -28.19691 | 33742 ft | 484 kts | 294° |
| 2026-05-07 06:58 | 60.73286 | -28.32614 | 33748 ft | 484 kts | 293° |
| 2026-05-07 06:59 | 60.75458 | -28.45652 | 33742 ft | 484 kts | 293° |
| 2026-05-07 06:59 | 60.77617 | -28.58704 | 33742 ft | 484 kts | 293° |
| 2026-05-07 07:00 | 60.79763 | -28.71776 | 33747 ft | 484 kts | 293° |
| 2026-05-07 07:00 | 60.81898 | -28.84868 | 33745 ft | 484 kts | 293° |
| 2026-05-07 07:01 | 60.84020 | -28.97984 | 33752 ft | 484 kts | 293° |
| 2026-05-07 07:01 | 60.85772 | -29.08881 | 33745 ft | 484 kts | 292° |
| 2026-05-07 07:02 | 60.87871 | -29.22030 | 33747 ft | 484 kts | 292° |
| 2026-05-07 07:02 | 60.89956 | -29.35189 | 33743 ft | 484 kts | 292° |
| 2026-05-07 07:03 | 60.92029 | -29.48367 | 33744 ft | 484 kts | 292° |
| 2026-05-07 07:03 | 60.94090 | -29.61568 | 33746 ft | 484 kts | 292° |
| 2026-05-07 07:04 | 60.96137 | -29.74783 | 33741 ft | 484 kts | 292° |
| 2026-05-07 07:04 | 60.98171 | -29.88016 | 33747 ft | 484 kts | 292° |
| 2026-05-07 07:05 | 61.00188 | -30.01269 | 33746 ft | 484 kts | 291° |
| 2026-05-07 07:05 | 61.02082 | -30.14635 | 33748 ft | 485 kts | 290° |
| 2026-05-07 07:06 | 61.03930 | -30.28040 | 33747 ft | 485 kts | 290° |
| 2026-05-07 07:06 | 61.05771 | -30.41452 | 33744 ft | 485 kts | 290° |
| 2026-05-07 07:07 | 61.07604 | -30.54874 | 33745 ft | 485 kts | 290° |
| 2026-05-07 07:07 | 61.09426 | -30.68319 | 33752 ft | 485 kts | 290° |
| 2026-05-07 07:08 | 61.11235 | -30.81781 | 33744 ft | 485 kts | 290° |
| 2026-05-07 07:08 | 61.13031 | -30.95254 | 33750 ft | 485 kts | 290° |
| 2026-05-07 07:09 | 61.14800 | -31.08641 | 33746 ft | 485 kts | 290° |
| 2026-05-07 07:09 | 61.16571 | -31.22154 | 33750 ft | 485 kts | 289° |
| 2026-05-07 07:10 | 61.18327 | -31.35676 | 33750 ft | 485 kts | 289° |
| 2026-05-07 07:10 | 61.20071 | -31.49222 | 33747 ft | 485 kts | 289° |
| 2026-05-07 07:11 | 61.21800 | -31.62776 | 33751 ft | 485 kts | 289° |
| 2026-05-07 07:11 | 61.23517 | -31.76352 | 33743 ft | 485 kts | 289° |
| 2026-05-07 07:12 | 61.25220 | -31.89941 | 33750 ft | 485 kts | 289° |
| 2026-05-07 07:12 | 61.26908 | -32.03535 | 33747 ft | 486 kts | 289° |
| 2026-05-07 07:13 | 61.28584 | -32.17158 | 33747 ft | 486 kts | 289° |
| 2026-05-07 07:13 | 61.30245 | -32.30784 | 33747 ft | 486 kts | 288° |
| 2026-05-07 07:14 | 61.31895 | -32.44445 | 33741 ft | 486 kts | 288° |
| 2026-05-07 07:14 | 61.33530 | -32.58106 | 33746 ft | 486 kts | 288° |
| 2026-05-07 07:15 | 61.35152 | -32.71789 | 33744 ft | 486 kts | 288° |
| 2026-05-07 07:15 | 61.36760 | -32.85491 | 33744 ft | 486 kts | 288° |
| 2026-05-07 07:16 | 61.38354 | -32.99198 | 33750 ft | 486 kts | 288° |
| 2026-05-07 07:16 | 61.39933 | -33.12911 | 33749 ft | 486 kts | 288° |
| 2026-05-07 07:17 | 61.41500 | -33.26654 | 33746 ft | 486 kts | 288° |
| 2026-05-07 07:17 | 61.43054 | -33.40414 | 33742 ft | 486 kts | 288° |
| 2026-05-07 07:18 | 61.44593 | -33.54182 | 33749 ft | 486 kts | 287° |
| 2026-05-07 07:18 | 61.46119 | -33.67970 | 33744 ft | 486 kts | 287° |
| 2026-05-07 07:19 | 61.47631 | -33.81772 | 33744 ft | 486 kts | 287° |
| 2026-05-07 07:19 | 61.49129 | -33.95587 | 33743 ft | 486 kts | 287° |
| 2026-05-07 07:20 | 61.50612 | -34.09405 | 33753 ft | 486 kts | 287° |
| 2026-05-07 07:20 | 61.52072 | -34.23155 | 33745 ft | 486 kts | 287° |
| 2026-05-07 07:21 | 61.53528 | -34.37007 | 33750 ft | 486 kts | 287° |
| 2026-05-07 07:21 | 61.54971 | -34.50888 | 33745 ft | 486 kts | 287° |
| 2026-05-07 07:22 | 61.56399 | -34.64766 | 33742 ft | 486 kts | 286° |
| 2026-05-07 07:22 | 61.57814 | -34.78672 | 33747 ft | 486 kts | 286° |
| 2026-05-07 07:23 | 61.59214 | -34.92582 | 33747 ft | 486 kts | 286° |
| 2026-05-07 07:23 | 61.60599 | -35.06498 | 33747 ft | 486 kts | 286° |
| 2026-05-07 07:24 | 61.61972 | -35.20441 | 33745 ft | 486 kts | 286° |
| 2026-05-07 07:24 | 61.63330 | -35.34392 | 33746 ft | 486 kts | 286° |
| 2026-05-07 07:25 | 61.65342 | -35.55354 | 33743 ft | 486 kts | 285° |
| 2026-05-07 07:26 | 61.66664 | -35.69336 | 33749 ft | 487 kts | 285° |
| 2026-05-07 07:26 | 61.67973 | -35.83337 | 33744 ft | 487 kts | 285° |
| 2026-05-07 07:27 | 61.69268 | -35.97355 | 33749 ft | 487 kts | 285° |
| 2026-05-07 07:27 | 61.70547 | -36.11364 | 33749 ft | 487 kts | 285° |
| 2026-05-07 07:28 | 61.71814 | -36.25409 | 33746 ft | 487 kts | 285° |
| 2026-05-07 07:28 | 61.73066 | -36.39464 | 33748 ft | 487 kts | 285° |
| 2026-05-07 07:29 | 61.74303 | -36.53517 | 33748 ft | 487 kts | 285° |
| 2026-05-07 07:29 | 61.75527 | -36.67596 | 33746 ft | 487 kts | 284° |
| 2026-05-07 07:30 | 61.76736 | -36.81691 | 33752 ft | 487 kts | 284° |
| 2026-05-07 07:30 | 61.77930 | -36.95784 | 33746 ft | 487 kts | 284° |
| 2026-05-07 07:31 | 61.79102 | -37.09790 | 33746 ft | 487 kts | 284° |
| 2026-05-07 07:31 | 61.80267 | -37.23911 | 33746 ft | 487 kts | 284° |
| 2026-05-07 07:32 | 61.81419 | -37.38053 | 33748 ft | 487 kts | 284° |
| 2026-05-07 07:32 | 61.82556 | -37.52198 | 33746 ft | 487 kts | 284° |
| 2026-05-07 07:33 | 61.83679 | -37.66361 | 33750 ft | 487 kts | 284° |
| 2026-05-07 07:33 | 61.84787 | -37.80530 | 33745 ft | 487 kts | 283° |
| 2026-05-07 07:34 | 61.85881 | -37.94707 | 33752 ft | 487 kts | 283° |
| 2026-05-07 07:34 | 61.86959 | -38.08897 | 33752 ft | 487 kts | 283° |
| 2026-05-07 07:35 | 61.88024 | -38.23099 | 33746 ft | 487 kts | 283° |
| 2026-05-07 07:35 | 61.89074 | -38.37319 | 33747 ft | 487 kts | 283° |
| 2026-05-07 07:36 | 61.90109 | -38.51538 | 33752 ft | 487 kts | 283° |
| 2026-05-07 07:36 | 61.91130 | -38.65777 | 33752 ft | 487 kts | 283° |
| 2026-05-07 07:37 | 61.92137 | -38.80032 | 33748 ft | 487 kts | 283° |
| 2026-05-07 07:37 | 61.93128 | -38.94282 | 33741 ft | 487 kts | 282° |
| 2026-05-07 07:38 | 61.94104 | -39.08544 | 33743 ft | 487 kts | 282° |
| 2026-05-07 07:38 | 61.95067 | -39.22826 | 33744 ft | 488 kts | 282° |
| 2026-05-07 07:39 | 61.96014 | -39.37113 | 33745 ft | 488 kts | 282° |
| 2026-05-07 07:39 | 61.96947 | -39.51417 | 33743 ft | 488 kts | 282° |
| 2026-05-07 07:40 | 61.97865 | -39.65720 | 33744 ft | 488 kts | 282° |
| 2026-05-07 07:40 | 61.98766 | -39.80036 | 33751 ft | 488 kts | 282° |
| 2026-05-07 07:41 | 61.99684 | -39.94252 | 33745 ft | 486 kts | 284° |
| 2026-05-07 07:41 | 62.01131 | -40.08254 | 33744 ft | 483 kts | 290° |
| 2026-05-07 07:42 | 62.03018 | -40.21984 | 33750 ft | 482 kts | 291° |
| 2026-05-07 07:42 | 62.04926 | -40.35708 | 33745 ft | 482 kts | 291° |
| 2026-05-07 07:43 | 62.06814 | -40.49466 | 33748 ft | 483 kts | 291° |
| 2026-05-07 07:43 | 62.08682 | -40.63235 | 33745 ft | 483 kts | 290° |
| 2026-05-07 07:44 | 62.10535 | -40.77027 | 33741 ft | 483 kts | 290° |
| 2026-05-07 07:44 | 62.12375 | -40.90842 | 33747 ft | 483 kts | 290° |
| 2026-05-07 07:45 | 62.14199 | -41.04669 | 33747 ft | 483 kts | 290° |
| 2026-05-07 07:45 | 62.16011 | -41.18519 | 33747 ft | 483 kts | 290° |
| 2026-05-07 07:46 | 62.17809 | -41.32385 | 33743 ft | 483 kts | 290° |
| 2026-05-07 07:46 | 62.19593 | -41.46271 | 33745 ft | 483 kts | 290° |
| 2026-05-07 07:47 | 62.21364 | -41.60173 | 33747 ft | 483 kts | 290° |
| 2026-05-07 07:47 | 62.23108 | -41.73992 | 33745 ft | 483 kts | 289° |
| 2026-05-07 07:48 | 62.24851 | -41.87931 | 33745 ft | 483 kts | 289° |
| 2026-05-07 07:48 | 62.26580 | -42.01884 | 33745 ft | 483 kts | 289° |
| 2026-05-07 07:49 | 62.28295 | -42.15857 | 33746 ft | 483 kts | 289° |
| 2026-05-07 07:49 | 62.29997 | -42.29843 | 33751 ft | 483 kts | 289° |
| 2026-05-07 07:50 | 62.31687 | -42.43872 | 33744 ft | 485 kts | 289° |
| 2026-05-07 07:50 | 62.33367 | -42.57946 | 33745 ft | 484 kts | 289° |
| 2026-05-07 07:51 | 62.34748 | -42.69625 | 33758 ft | 484 kts | 289° |
| 2026-05-07 07:51 | 62.36686 | -42.86154 | 33742 ft | 487 kts | 288° |
| 2026-05-07 07:52 | 62.38055 | -42.97956 | 33739 ft | 488 kts | 288° |
| 2026-05-07 07:52 | 62.39684 | -43.12139 | 33745 ft | 487 kts | 288° |
| 2026-05-07 07:53 | 62.41309 | -43.26409 | 33745 ft | 489 kts | 288° |
| 2026-05-07 07:53 | 62.42927 | -43.40738 | 33740 ft | 493 kts | 288° |
| 2026-05-07 07:54 | 62.44537 | -43.55188 | 33746 ft | 495 kts | 288° |
| 2026-05-07 07:54 | 62.46150 | -43.69774 | 33743 ft | 502 kts | 287° |
| 2026-05-07 07:55 | 62.47774 | -43.84605 | 33750 ft | 510 kts | 285° |
| 2026-05-07 07:55 | 62.49392 | -43.99607 | 33741 ft | 513 kts | 285° |
| 2026-05-07 07:56 | 62.51005 | -44.14744 | 33743 ft | 515 kts | 284° |
| 2026-05-07 07:56 | 62.52595 | -44.29823 | 33744 ft | 517 kts | 284° |
| 2026-05-07 07:57 | 62.54183 | -44.45042 | 33747 ft | 518 kts | 283° |
| 2026-05-07 07:57 | 62.55757 | -44.60302 | 33747 ft | 519 kts | 283° |
| 2026-05-07 07:58 | 62.57319 | -44.75615 | 33745 ft | 519 kts | 283° |
| 2026-05-07 07:58 | 62.58863 | -44.90939 | 33746 ft | 520 kts | 283° |
| 2026-05-07 07:59 | 62.60390 | -45.06288 | 33753 ft | 520 kts | 282° |
| 2026-05-07 07:59 | 62.61901 | -45.21662 | 33752 ft | 520 kts | 282° |
| 2026-05-07 08:00 | 62.63395 | -45.37039 | 33747 ft | 519 kts | 282° |
| 2026-05-07 08:00 | 62.64872 | -45.52421 | 33743 ft | 519 kts | 282° |
| 2026-05-07 08:01 | 62.66331 | -45.67806 | 33752 ft | 518 kts | 282° |
| 2026-05-07 08:01 | 62.67774 | -45.83198 | 33750 ft | 518 kts | 282° |
| 2026-05-07 08:02 | 62.69197 | -45.98595 | 33751 ft | 517 kts | 282° |
| 2026-05-07 08:02 | 62.70602 | -46.13974 | 33745 ft | 517 kts | 282° |
| 2026-05-07 08:03 | 62.71990 | -46.29383 | 33746 ft | 517 kts | 282° |
| 2026-05-07 08:03 | 62.73358 | -46.44778 | 33753 ft | 516 kts | 282° |
| 2026-05-07 08:04 | 62.74710 | -46.60179 | 33749 ft | 516 kts | 282° |
| 2026-05-07 08:04 | 62.76044 | -46.75571 | 33748 ft | 515 kts | 282° |
| 2026-05-07 08:05 | 62.77361 | -46.90977 | 33745 ft | 515 kts | 282° |
| 2026-05-07 08:05 | 62.78659 | -47.06382 | 33747 ft | 515 kts | 282° |
| 2026-05-07 08:06 | 62.79942 | -47.21822 | 33743 ft | 515 kts | 282° |
| 2026-05-07 08:06 | 62.81203 | -47.37249 | 33746 ft | 514 kts | 282° |
| 2026-05-07 08:07 | 62.82446 | -47.52663 | 33746 ft | 513 kts | 282° |
| 2026-05-07 08:07 | 62.83663 | -47.67940 | 33742 ft | 512 kts | 282° |
| 2026-05-07 08:08 | 62.84876 | -47.83397 | 33750 ft | 511 kts | 282° |
| 2026-05-07 08:08 | 62.86063 | -47.98752 | 33741 ft | 510 kts | 282° |
| 2026-05-07 08:09 | 62.87228 | -48.14078 | 33746 ft | 508 kts | 282° |
| 2026-05-07 08:09 | 62.88367 | -48.29262 | 33742 ft | 507 kts | 282° |
| 2026-05-07 08:10 | 62.89501 | -48.44608 | 33753 ft | 505 kts | 282° |
| 2026-05-07 08:10 | 62.90600 | -48.59720 | 33743 ft | 503 kts | 283° |
| 2026-05-07 08:11 | 62.91674 | -48.74792 | 33745 ft | 497 kts | 283° |
| 2026-05-07 08:11 | 62.92735 | -48.89771 | 33746 ft | 496 kts | 283° |
| 2026-05-07 08:12 | 62.93777 | -49.04749 | 33747 ft | 495 kts | 283° |
| 2026-05-07 08:12 | 62.94799 | -49.19716 | 33752 ft | 495 kts | 282° |
| 2026-05-07 08:13 | 62.95804 | -49.34667 | 33750 ft | 494 kts | 282° |
| 2026-05-07 08:13 | 62.96791 | -49.49607 | 33747 ft | 493 kts | 282° |
| 2026-05-07 08:14 | 62.97761 | -49.64550 | 33748 ft | 492 kts | 282° |
| 2026-05-07 08:14 | 62.98695 | -49.79385 | 33747 ft | 487 kts | 281° |
| 2026-05-07 08:15 | 62.99124 | -49.94321 | 33743 ft | 490 kts | 274° |
| 2026-05-07 08:15 | 62.98752 | -50.09463 | 33748 ft | 499 kts | 266° |
| 2026-05-07 08:16 | 62.97570 | -50.24502 | 33751 ft | 498 kts | 261° |
| 2026-05-07 08:16 | 62.96075 | -50.39366 | 33750 ft | 497 kts | 260° |
| 2026-05-07 08:17 | 62.94581 | -50.54086 | 33751 ft | 496 kts | 260° |
| 2026-05-07 08:17 | 62.93063 | -50.68974 | 33749 ft | 495 kts | 260° |
| 2026-05-07 08:18 | 62.91555 | -50.83647 | 33752 ft | 495 kts | 260° |
| 2026-05-07 08:18 | 62.90022 | -50.98405 | 33743 ft | 495 kts | 260° |
| 2026-05-07 08:19 | 62.88473 | -51.13150 | 33746 ft | 495 kts | 260° |
| 2026-05-07 08:19 | 62.86910 | -51.27877 | 33747 ft | 496 kts | 259° |
| 2026-05-07 08:20 | 62.85330 | -51.42596 | 33747 ft | 496 kts | 259° |
| 2026-05-07 08:20 | 62.83736 | -51.57295 | 33746 ft | 496 kts | 259° |
| 2026-05-07 08:21 | 62.82125 | -51.71982 | 33749 ft | 496 kts | 259° |
| 2026-05-07 08:21 | 62.80501 | -51.86643 | 33743 ft | 496 kts | 259° |
| 2026-05-07 08:22 | 62.78860 | -52.01302 | 33741 ft | 496 kts | 259° |
| 2026-05-07 08:22 | 62.77205 | -52.15930 | 33744 ft | 496 kts | 259° |
| 2026-05-07 08:23 | 62.75532 | -52.30561 | 33746 ft | 496 kts | 259° |
| 2026-05-07 08:23 | 62.73846 | -52.45169 | 33752 ft | 496 kts | 258° |
| 2026-05-07 08:24 | 62.72145 | -52.59752 | 33745 ft | 496 kts | 258° |
| 2026-05-07 08:24 | 62.70427 | -52.74329 | 33750 ft | 496 kts | 258° |
| 2026-05-07 08:25 | 62.68696 | -52.88883 | 33743 ft | 496 kts | 258° |
| 2026-05-07 08:25 | 62.66947 | -53.03433 | 33746 ft | 496 kts | 258° |
| 2026-05-07 08:26 | 62.64299 | -53.25207 | 33749 ft | 496 kts | 258° |
| 2026-05-07 08:26 | 62.62525 | -53.39618 | 33747 ft | 496 kts | 258° |
| 2026-05-07 08:27 | 62.60726 | -53.54095 | 33749 ft | 496 kts | 257° |
| 2026-05-07 08:27 | 62.58911 | -53.68560 | 33746 ft | 496 kts | 257° |
| 2026-05-07 08:28 | 62.57080 | -53.83014 | 33749 ft | 496 kts | 257° |
| 2026-05-07 08:28 | 62.55235 | -53.97447 | 33743 ft | 496 kts | 257° |
| 2026-05-07 08:29 | 62.53377 | -54.11846 | 33743 ft | 496 kts | 257° |
| 2026-05-07 08:29 | 62.51502 | -54.26245 | 33744 ft | 496 kts | 257° |
| 2026-05-07 08:30 | 62.49614 | -54.40616 | 33746 ft | 496 kts | 257° |
| 2026-05-07 08:30 | 62.47709 | -54.54982 | 33747 ft | 496 kts | 257° |
| 2026-05-07 08:31 | 62.45788 | -54.69331 | 33743 ft | 496 kts | 256° |
| 2026-05-07 08:31 | 62.43855 | -54.83650 | 33746 ft | 496 kts | 256° |
| 2026-05-07 08:32 | 62.41906 | -54.97962 | 33748 ft | 496 kts | 256° |
| 2026-05-07 08:32 | 62.39944 | -55.12242 | 33742 ft | 496 kts | 256° |
| 2026-05-07 08:33 | 62.37966 | -55.26513 | 33747 ft | 496 kts | 256° |
| 2026-05-07 08:33 | 62.35973 | -55.40765 | 33744 ft | 496 kts | 256° |
| 2026-05-07 08:34 | 62.33965 | -55.55002 | 33747 ft | 496 kts | 256° |
| 2026-05-07 08:34 | 62.31943 | -55.69216 | 33747 ft | 496 kts | 255° |
| 2026-05-07 08:35 | 62.29921 | -55.83312 | 33743 ft | 496 kts | 255° |
| 2026-05-07 08:35 | 62.27869 | -55.97501 | 33749 ft | 496 kts | 255° |
| 2026-05-07 08:36 | 62.25804 | -56.11653 | 33743 ft | 496 kts | 255° |
| 2026-05-07 08:36 | 62.23726 | -56.25783 | 33746 ft | 496 kts | 255° |
| 2026-05-07 08:37 | 62.21631 | -56.39908 | 33742 ft | 496 kts | 255° |
| 2026-05-07 08:37 | 62.19521 | -56.54019 | 33749 ft | 496 kts | 255° |
| 2026-05-07 08:38 | 62.17398 | -56.68099 | 33743 ft | 496 kts | 255° |
| 2026-05-07 08:38 | 62.15260 | -56.82164 | 33747 ft | 496 kts | 254° |
| 2026-05-07 08:39 | 62.13108 | -56.96207 | 33746 ft | 496 kts | 254° |
| 2026-05-07 08:39 | 62.10943 | -57.10225 | 33744 ft | 496 kts | 254° |
| 2026-05-07 08:40 | 62.08762 | -57.24234 | 33748 ft | 496 kts | 254° |
| 2026-05-07 08:40 | 62.06925 | -57.35949 | 33751 ft | 496 kts | 254° |
| 2026-05-07 08:41 | 62.04734 | -57.49822 | 33750 ft | 496 kts | 254° |
| 2026-05-07 08:41 | 62.02512 | -57.63779 | 33744 ft | 496 kts | 253° |
| 2026-05-07 08:42 | 62.00279 | -57.77703 | 33745 ft | 496 kts | 253° |
| 2026-05-07 08:42 | 61.98027 | -57.91616 | 33751 ft | 496 kts | 253° |
| 2026-05-07 08:43 | 61.96063 | -58.05652 | 33751 ft | 494 kts | 259° |
| 2026-05-07 08:43 | 61.94568 | -58.19908 | 33744 ft | 494 kts | 261° |
| 2026-05-07 08:44 | 61.93082 | -58.34163 | 33744 ft | 494 kts | 260° |
| 2026-05-07 08:44 | 61.91573 | -58.48407 | 33743 ft | 494 kts | 260° |
| 2026-05-07 08:45 | 61.90045 | -58.62637 | 33741 ft | 494 kts | 260° |
| 2026-05-07 08:45 | 61.88501 | -58.76858 | 33748 ft | 494 kts | 260° |
| 2026-05-07 08:46 | 61.86943 | -58.91057 | 33746 ft | 494 kts | 259° |
| 2026-05-07 08:46 | 61.85371 | -59.05231 | 33752 ft | 494 kts | 259° |
| 2026-05-07 08:47 | 61.83782 | -59.19412 | 33743 ft | 494 kts | 259° |
| 2026-05-07 08:47 | 61.82179 | -59.33573 | 33744 ft | 494 kts | 259° |
| 2026-05-07 08:48 | 61.80562 | -59.47717 | 33750 ft | 494 kts | 259° |
| 2026-05-07 08:48 | 61.78930 | -59.61845 | 33741 ft | 494 kts | 259° |
| 2026-05-07 08:49 | 61.77283 | -59.75966 | 33743 ft | 494 kts | 259° |
| 2026-05-07 08:49 | 61.75622 | -59.90068 | 33746 ft | 494 kts | 259° |
| 2026-05-07 08:50 | 61.73959 | -60.04048 | 33746 ft | 494 kts | 258° |
| 2026-05-07 08:50 | 61.72270 | -60.18119 | 33752 ft | 494 kts | 258° |
| 2026-05-07 08:51 | 61.70565 | -60.32174 | 33741 ft | 494 kts | 258° |
| 2026-05-07 08:51 | 61.68846 | -60.46219 | 33750 ft | 494 kts | 258° |
| 2026-05-07 08:52 | 61.67113 | -60.60248 | 33746 ft | 494 kts | 258° |
| 2026-05-07 08:52 | 61.65365 | -60.74262 | 33747 ft | 494 kts | 258° |
| 2026-05-07 08:53 | 61.63603 | -60.88259 | 33746 ft | 494 kts | 258° |
| 2026-05-07 08:53 | 61.61827 | -61.02237 | 33752 ft | 494 kts | 258° |
| 2026-05-07 08:54 | 61.60036 | -61.16198 | 33747 ft | 494 kts | 257° |
| 2026-05-07 08:54 | 61.58230 | -61.30157 | 33749 ft | 494 kts | 257° |
| 2026-05-07 08:55 | 61.56411 | -61.44091 | 33741 ft | 494 kts | 257° |
| 2026-05-07 08:55 | 61.54577 | -61.58008 | 33748 ft | 494 kts | 257° |
| 2026-05-07 08:56 | 61.52729 | -61.71916 | 33748 ft | 494 kts | 257° |
| 2026-05-07 08:56 | 61.50867 | -61.85799 | 33742 ft | 494 kts | 257° |
| 2026-05-07 08:57 | 61.48990 | -61.99677 | 33750 ft | 494 kts | 257° |
| 2026-05-07 08:57 | 61.47102 | -62.13512 | 33749 ft | 494 kts | 257° |
| 2026-05-07 08:58 | 61.45198 | -62.27350 | 33752 ft | 494 kts | 256° |
| 2026-05-07 08:58 | 61.43293 | -62.41077 | 33745 ft | 494 kts | 256° |
| 2026-05-07 08:59 | 61.41360 | -62.54881 | 33746 ft | 494 kts | 256° |
| 2026-05-07 08:59 | 61.39412 | -62.68678 | 33746 ft | 495 kts | 256° |
| 2026-05-07 09:00 | 61.37452 | -62.82446 | 33744 ft | 495 kts | 256° |
| 2026-05-07 09:00 | 61.35478 | -62.96204 | 33743 ft | 495 kts | 256° |
| 2026-05-07 09:01 | 61.33490 | -63.09934 | 33744 ft | 495 kts | 256° |
| 2026-05-07 09:01 | 61.31488 | -63.23655 | 33749 ft | 495 kts | 256° |
| 2026-05-07 09:02 | 61.29471 | -63.37363 | 33745 ft | 495 kts | 255° |
| 2026-05-07 09:02 | 61.27442 | -63.51043 | 33747 ft | 495 kts | 255° |
| 2026-05-07 09:03 | 61.25396 | -63.64723 | 33742 ft | 495 kts | 255° |
| 2026-05-07 09:03 | 61.23339 | -63.78375 | 33743 ft | 495 kts | 255° |
| 2026-05-07 09:04 | 61.21267 | -63.92010 | 33743 ft | 495 kts | 255° |
| 2026-05-07 09:04 | 61.19197 | -64.05529 | 33745 ft | 495 kts | 255° |
| 2026-05-07 09:05 | 61.17098 | -64.19128 | 33747 ft | 495 kts | 255° |
| 2026-05-07 09:05 | 61.14986 | -64.32706 | 33746 ft | 495 kts | 255° |
| 2026-05-07 09:06 | 61.12859 | -64.46276 | 33741 ft | 495 kts | 255° |
| 2026-05-07 09:06 | 61.10719 | -64.59825 | 33750 ft | 495 kts | 254° |
| 2026-05-07 09:07 | 61.08565 | -64.73357 | 33746 ft | 495 kts | 254° |
| 2026-05-07 09:07 | 61.06398 | -64.86868 | 33750 ft | 495 kts | 254° |
| 2026-05-07 09:08 | 61.04220 | -65.00346 | 33742 ft | 495 kts | 254° |
| 2026-05-07 09:08 | 61.02025 | -65.13820 | 33747 ft | 495 kts | 254° |
| 2026-05-07 09:09 | 60.99821 | -65.27259 | 33747 ft | 495 kts | 253° |
| 2026-05-07 09:09 | 60.97598 | -65.40706 | 33744 ft | 495 kts | 253° |
| 2026-05-07 09:10 | 60.95363 | -65.54127 | 33742 ft | 495 kts | 253° |
| 2026-05-07 09:10 | 60.93115 | -65.67530 | 33750 ft | 495 kts | 253° |
| 2026-05-07 09:11 | 60.90855 | -65.80906 | 33749 ft | 495 kts | 253° |
| 2026-05-07 09:11 | 60.88580 | -65.94272 | 33744 ft | 495 kts | 253° |
| 2026-05-07 09:12 | 60.86293 | -66.07613 | 33745 ft | 495 kts | 253° |
| 2026-05-07 09:12 | 60.83992 | -66.20939 | 33745 ft | 495 kts | 253° |
| 2026-05-07 09:13 | 60.81679 | -66.34240 | 33750 ft | 495 kts | 253° |
| 2026-05-07 09:13 | 60.79351 | -66.47531 | 33749 ft | 495 kts | 252° |
| 2026-05-07 09:14 | 60.77008 | -66.60812 | 33743 ft | 495 kts | 252° |
| 2026-05-07 09:14 | 60.74655 | -66.74058 | 33751 ft | 495 kts | 252° |
| 2026-05-07 09:15 | 60.72287 | -66.87291 | 33743 ft | 495 kts | 252° |
| 2026-05-07 09:15 | 60.69943 | -67.00509 | 33749 ft | 494 kts | 254° |
| 2026-05-07 09:16 | 60.67949 | -67.13828 | 33745 ft | 494 kts | 256° |
| 2026-05-07 09:16 | 60.65965 | -67.27257 | 33743 ft | 494 kts | 256° |
| 2026-05-07 09:17 | 60.63952 | -67.40758 | 33742 ft | 494 kts | 256° |
| 2026-05-07 09:17 | 60.61949 | -67.54059 | 33743 ft | 494 kts | 255° |
| 2026-05-07 09:18 | 60.59919 | -67.67433 | 33742 ft | 494 kts | 255° |
| 2026-05-07 09:18 | 60.57874 | -67.80797 | 33740 ft | 494 kts | 255° |
| 2026-05-07 09:19 | 60.55816 | -67.94140 | 33743 ft | 494 kts | 255° |
| 2026-05-07 09:19 | 60.53746 | -68.07461 | 33745 ft | 495 kts | 255° |
| 2026-05-07 09:20 | 60.51656 | -68.20809 | 33745 ft | 495 kts | 255° |
| 2026-05-07 09:20 | 60.49554 | -68.34123 | 33742 ft | 494 kts | 255° |
| 2026-05-07 09:21 | 60.47441 | -68.47409 | 33753 ft | 494 kts | 255° |
| 2026-05-07 09:21 | 60.45317 | -68.60666 | 33743 ft | 494 kts | 255° |
| 2026-05-07 09:22 | 60.43180 | -68.73909 | 33746 ft | 494 kts | 254° |
| 2026-05-07 09:22 | 60.41030 | -68.87129 | 33747 ft | 494 kts | 254° |
| 2026-05-07 09:23 | 60.38868 | -69.00327 | 33747 ft | 494 kts | 254° |
| 2026-05-07 09:23 | 60.36691 | -69.13518 | 33746 ft | 494 kts | 254° |
| 2026-05-07 09:24 | 60.34501 | -69.26693 | 33747 ft | 494 kts | 254° |
| 2026-05-07 09:24 | 60.32297 | -69.39849 | 33745 ft | 494 kts | 253° |
| 2026-05-07 09:25 | 60.30082 | -69.52986 | 33745 ft | 494 kts | 253° |
| 2026-05-07 09:25 | 60.27868 | -69.66015 | 33743 ft | 494 kts | 253° |
| 2026-05-07 09:26 | 60.25624 | -69.79129 | 33741 ft | 494 kts | 253° |
| 2026-05-07 09:26 | 60.23368 | -69.92224 | 33747 ft | 494 kts | 253° |
| 2026-05-07 09:27 | 60.21099 | -70.05294 | 33747 ft | 495 kts | 253° |
| 2026-05-07 09:28 | 60.17667 | -70.24900 | 33742 ft | 495 kts | 253° |
| 2026-05-07 09:28 | 60.15360 | -70.37960 | 33747 ft | 495 kts | 253° |
| 2026-05-07 09:29 | 60.13042 | -70.50993 | 33743 ft | 495 kts | 252° |
| 2026-05-07 09:29 | 60.10710 | -70.64015 | 33742 ft | 495 kts | 252° |
| 2026-05-07 09:30 | 60.08763 | -70.74819 | 33745 ft | 496 kts | 252° |
| 2026-05-07 09:30 | 60.06407 | -70.87813 | 33753 ft | 496 kts | 252° |
| 2026-05-07 09:31 | 60.04042 | -71.00765 | 33743 ft | 495 kts | 252° |
| 2026-05-07 09:31 | 60.01663 | -71.13706 | 33747 ft | 495 kts | 252° |
| 2026-05-07 09:32 | 59.99271 | -71.26629 | 33747 ft | 496 kts | 252° |
| 2026-05-07 09:32 | 59.96864 | -71.39552 | 33748 ft | 496 kts | 252° |
| 2026-05-07 09:33 | 59.94442 | -71.52462 | 33745 ft | 496 kts | 252° |
| 2026-05-07 09:33 | 59.92010 | -71.65345 | 33749 ft | 496 kts | 251° |
| 2026-05-07 09:34 | 59.89563 | -71.78218 | 33751 ft | 496 kts | 251° |
| 2026-05-07 09:34 | 59.87123 | -71.90969 | 33742 ft | 496 kts | 251° |
| 2026-05-07 09:35 | 59.84656 | -72.03783 | 33750 ft | 496 kts | 251° |
| 2026-05-07 09:35 | 59.82170 | -72.16605 | 33742 ft | 496 kts | 251° |
| 2026-05-07 09:36 | 59.79675 | -72.29393 | 33744 ft | 496 kts | 251° |
| 2026-05-07 09:36 | 59.77167 | -72.42170 | 33747 ft | 496 kts | 251° |
| 2026-05-07 09:37 | 59.74646 | -72.54924 | 33746 ft | 496 kts | 251° |
| 2026-05-07 09:37 | 59.72117 | -72.67639 | 33747 ft | 495 kts | 251° |
| 2026-05-07 09:38 | 59.69573 | -72.80351 | 33744 ft | 496 kts | 250° |
| 2026-05-07 09:38 | 59.67017 | -72.93038 | 33745 ft | 496 kts | 250° |
| 2026-05-07 09:39 | 59.64450 | -73.05703 | 33744 ft | 496 kts | 250° |
| 2026-05-07 09:39 | 59.61869 | -73.18355 | 33745 ft | 496 kts | 250° |
| 2026-05-07 09:40 | 59.59275 | -73.30991 | 33744 ft | 496 kts | 250° |
| 2026-05-07 09:40 | 59.56670 | -73.43606 | 33749 ft | 496 kts | 250° |
| 2026-05-07 09:41 | 59.54053 | -73.56200 | 33744 ft | 496 kts | 250° |
| 2026-05-07 09:41 | 59.51423 | -73.68776 | 33749 ft | 496 kts | 250° |
| 2026-05-07 09:42 | 59.48783 | -73.81324 | 33744 ft | 495 kts | 250° |
| 2026-05-07 09:42 | 59.46130 | -73.93858 | 33745 ft | 495 kts | 249° |
| 2026-05-07 09:43 | 59.43469 | -74.06350 | 33745 ft | 495 kts | 249° |
| 2026-05-07 09:43 | 59.40793 | -74.18840 | 33741 ft | 495 kts | 249° |
| 2026-05-07 09:44 | 59.38104 | -74.31314 | 33745 ft | 496 kts | 249° |
| 2026-05-07 09:44 | 59.35423 | -74.43678 | 33743 ft | 495 kts | 249° |
| 2026-05-07 09:45 | 59.32711 | -74.56110 | 33743 ft | 495 kts | 249° |
| 2026-05-07 09:45 | 59.29988 | -74.68523 | 33747 ft | 495 kts | 249° |
| 2026-05-07 09:46 | 59.27253 | -74.80909 | 33745 ft | 495 kts | 249° |
| 2026-05-07 09:46 | 59.24507 | -74.93275 | 33748 ft | 495 kts | 249° |
| 2026-05-07 09:47 | 59.21751 | -75.05613 | 33749 ft | 495 kts | 248° |
| 2026-05-07 09:47 | 59.18982 | -75.17939 | 33745 ft | 495 kts | 248° |
| 2026-05-07 09:48 | 59.16202 | -75.30242 | 33743 ft | 495 kts | 248° |
| 2026-05-07 09:48 | 59.13409 | -75.42531 | 33747 ft | 495 kts | 248° |
| 2026-05-07 09:49 | 59.10605 | -75.54796 | 33744 ft | 495 kts | 248° |
| 2026-05-07 09:49 | 59.07788 | -75.67048 | 33754 ft | 495 kts | 248° |
| 2026-05-07 09:50 | 59.04959 | -75.79284 | 33743 ft | 495 kts | 248° |
| 2026-05-07 09:50 | 59.02120 | -75.91489 | 33746 ft | 496 kts | 248° |
| 2026-05-07 09:51 | 58.99273 | -76.03662 | 33742 ft | 496 kts | 248° |
| 2026-05-07 09:51 | 58.96410 | -76.15831 | 33749 ft | 495 kts | 248° |
| 2026-05-07 09:52 | 58.93536 | -76.27980 | 33751 ft | 495 kts | 247° |
| 2026-05-07 09:52 | 58.90650 | -76.40115 | 33747 ft | 495 kts | 247° |
| 2026-05-07 09:53 | 58.87773 | -76.52138 | 33750 ft | 495 kts | 247° |
| 2026-05-07 09:53 | 58.84865 | -76.64230 | 33748 ft | 495 kts | 247° |
| 2026-05-07 09:54 | 58.81947 | -76.76291 | 33745 ft | 495 kts | 247° |
| 2026-05-07 09:54 | 58.79015 | -76.88345 | 33745 ft | 495 kts | 247° |
| 2026-05-07 09:55 | 58.76078 | -77.00355 | 33744 ft | 495 kts | 246° |
| 2026-05-07 09:55 | 58.73126 | -77.12361 | 33742 ft | 495 kts | 246° |
| 2026-05-07 09:56 | 58.70162 | -77.24345 | 33746 ft | 495 kts | 246° |
| 2026-05-07 09:56 | 58.67189 | -77.36304 | 33745 ft | 495 kts | 246° |
| 2026-05-07 09:57 | 58.64206 | -77.48237 | 33743 ft | 495 kts | 246° |
| 2026-05-07 09:57 | 58.61211 | -77.60154 | 33751 ft | 495 kts | 246° |
| 2026-05-07 09:58 | 58.58205 | -77.72051 | 33747 ft | 495 kts | 246° |
| 2026-05-07 09:58 | 58.55188 | -77.83927 | 33745 ft | 495 kts | 246° |
| 2026-05-07 09:59 | 58.52163 | -77.95772 | 33748 ft | 495 kts | 246° |
| 2026-05-07 09:59 | 58.49126 | -78.07600 | 33745 ft | 495 kts | 246° |
| 2026-05-07 10:00 | 58.46078 | -78.19408 | 33745 ft | 495 kts | 245° |
| 2026-05-07 10:00 | 58.43021 | -78.31191 | 33742 ft | 495 kts | 245° |
| 2026-05-07 10:01 | 58.39952 | -78.42953 | 33744 ft | 495 kts | 245° |
| 2026-05-07 10:01 | 58.36872 | -78.54698 | 33747 ft | 495 kts | 245° |
| 2026-05-07 10:02 | 58.33804 | -78.66339 | 33745 ft | 495 kts | 245° |
| 2026-05-07 10:02 | 58.30704 | -78.78040 | 33746 ft | 495 kts | 245° |
| 2026-05-07 10:03 | 58.27592 | -78.89722 | 33748 ft | 495 kts | 245° |
| 2026-05-07 10:03 | 58.24474 | -79.01368 | 33742 ft | 495 kts | 245° |
| 2026-05-07 10:04 | 58.21343 | -79.13001 | 33744 ft | 495 kts | 245° |
| 2026-05-07 10:04 | 58.18199 | -79.24627 | 33744 ft | 495 kts | 244° |
| 2026-05-07 10:05 | 58.15047 | -79.36220 | 33745 ft | 495 kts | 244° |
| 2026-05-07 10:05 | 58.11882 | -79.47799 | 33746 ft | 495 kts | 244° |
| 2026-05-07 10:06 | 58.08707 | -79.59358 | 33744 ft | 495 kts | 244° |
| 2026-05-07 10:06 | 58.05523 | -79.70894 | 33747 ft | 495 kts | 244° |
| 2026-05-07 10:07 | 58.02328 | -79.82410 | 33752 ft | 495 kts | 244° |
| 2026-05-07 10:07 | 57.99124 | -79.93891 | 33748 ft | 495 kts | 244° |
| 2026-05-07 10:08 | 57.95684 | -80.05134 | 33748 ft | 496 kts | 239° |
| 2026-05-07 10:08 | 57.91952 | -80.16069 | 33746 ft | 496 kts | 238° |
| 2026-05-07 10:09 | 57.88209 | -80.26978 | 33746 ft | 496 kts | 238° |
| 2026-05-07 10:09 | 57.84463 | -80.37857 | 33747 ft | 496 kts | 238° |
| 2026-05-07 10:10 | 57.80705 | -80.48728 | 33745 ft | 496 kts | 238° |
| 2026-05-07 10:10 | 57.76967 | -80.59494 | 33746 ft | 496 kts | 238° |
| 2026-05-07 10:11 | 57.73193 | -80.70317 | 33745 ft | 496 kts | 238° |
| 2026-05-07 10:11 | 57.69409 | -80.81118 | 33746 ft | 496 kts | 238° |
| 2026-05-07 10:12 | 57.65618 | -80.91891 | 33749 ft | 496 kts | 238° |
| 2026-05-07 10:12 | 57.61821 | -81.02634 | 33745 ft | 496 kts | 238° |
| 2026-05-07 10:13 | 57.58011 | -81.13365 | 33745 ft | 496 kts | 238° |
| 2026-05-07 10:13 | 57.54195 | -81.24063 | 33746 ft | 496 kts | 238° |
| 2026-05-07 10:14 | 57.50367 | -81.34748 | 33746 ft | 496 kts | 237° |
| 2026-05-07 10:14 | 57.46527 | -81.45419 | 33746 ft | 496 kts | 237° |
| 2026-05-07 10:15 | 57.42682 | -81.56056 | 33746 ft | 496 kts | 237° |
| 2026-05-07 10:15 | 57.38827 | -81.66676 | 33747 ft | 496 kts | 237° |
| 2026-05-07 10:16 | 57.34965 | -81.77265 | 33749 ft | 496 kts | 237° |
| 2026-05-07 10:16 | 57.31093 | -81.87837 | 33747 ft | 496 kts | 237° |
| 2026-05-07 10:17 | 57.27212 | -81.98386 | 33747 ft | 496 kts | 237° |
| 2026-05-07 10:17 | 57.23324 | -82.08908 | 33750 ft | 496 kts | 237° |
| 2026-05-07 10:18 | 57.19426 | -82.19410 | 33743 ft | 496 kts | 237° |
| 2026-05-07 10:18 | 57.15545 | -82.29821 | 33743 ft | 496 kts | 237° |
| 2026-05-07 10:19 | 57.11629 | -82.40283 | 33746 ft | 496 kts | 237° |
| 2026-05-07 10:19 | 57.07705 | -82.50721 | 33743 ft | 496 kts | 236° |
| 2026-05-07 10:20 | 57.03773 | -82.61132 | 33749 ft | 496 kts | 236° |
| 2026-05-07 10:20 | 56.99836 | -82.71515 | 33746 ft | 495 kts | 236° |
| 2026-05-07 10:21 | 56.95885 | -82.81889 | 33745 ft | 495 kts | 236° |
| 2026-05-07 10:21 | 56.91925 | -82.92240 | 33745 ft | 495 kts | 236° |
| 2026-05-07 10:22 | 56.88634 | -83.00810 | 33754 ft | 495 kts | 236° |
| 2026-05-07 10:22 | 56.84661 | -83.11117 | 33746 ft | 495 kts | 236° |
| 2026-05-07 10:23 | 56.80678 | -83.21404 | 33745 ft | 495 kts | 236° |
| 2026-05-07 10:23 | 56.76690 | -83.31663 | 33744 ft | 495 kts | 236° |
| 2026-05-07 10:24 | 56.72689 | -83.41909 | 33745 ft | 495 kts | 236° |
| 2026-05-07 10:24 | 56.68684 | -83.52123 | 33746 ft | 495 kts | 236° |
| 2026-05-07 10:25 | 56.64668 | -83.62324 | 33748 ft | 495 kts | 235° |
| 2026-05-07 10:25 | 56.60646 | -83.72495 | 33745 ft | 495 kts | 235° |
| 2026-05-07 10:26 | 56.56613 | -83.82652 | 33746 ft | 495 kts | 235° |
| 2026-05-07 10:26 | 56.52575 | -83.92779 | 33746 ft | 495 kts | 235° |
| 2026-05-07 10:27 | 56.48530 | -84.02882 | 33746 ft | 495 kts | 235° |
| 2026-05-07 10:27 | 56.44475 | -84.12966 | 33746 ft | 495 kts | 235° |
| 2026-05-07 10:28 | 56.40411 | -84.23031 | 33743 ft | 495 kts | 235° |
| 2026-05-07 10:28 | 56.36341 | -84.33072 | 33750 ft | 495 kts | 235° |
| 2026-05-07 10:29 | 56.32263 | -84.43089 | 33743 ft | 495 kts | 234° |
| 2026-05-07 10:29 | 56.28175 | -84.53089 | 33746 ft | 495 kts | 234° |
| 2026-05-07 10:30 | 56.22057 | -84.67981 | 33747 ft | 495 kts | 234° |
| 2026-05-07 10:30 | 56.17951 | -84.77922 | 33746 ft | 495 kts | 234° |
| 2026-05-07 10:31 | 56.13836 | -84.87846 | 33745 ft | 495 kts | 234° |
| 2026-05-07 10:31 | 56.09715 | -84.97744 | 33745 ft | 495 kts | 234° |
| 2026-05-07 10:32 | 56.05588 | -85.07617 | 33750 ft | 495 kts | 234° |
| 2026-05-07 10:32 | 56.01450 | -85.17476 | 33743 ft | 495 kts | 234° |
| 2026-05-07 10:33 | 55.97310 | -85.27300 | 33750 ft | 495 kts | 234° |
| 2026-05-07 10:33 | 55.93156 | -85.37117 | 33743 ft | 495 kts | 234° |
| 2026-05-07 10:34 | 55.88996 | -85.46910 | 33749 ft | 495 kts | 234° |
| 2026-05-07 10:34 | 55.84827 | -85.56684 | 33749 ft | 495 kts | 233° |
| 2026-05-07 10:35 | 55.80652 | -85.66432 | 33749 ft | 495 kts | 233° |
| 2026-05-07 10:35 | 55.76471 | -85.76157 | 33745 ft | 495 kts | 233° |
| 2026-05-07 10:36 | 55.72280 | -85.85865 | 33746 ft | 495 kts | 233° |
| 2026-05-07 10:36 | 55.68081 | -85.95553 | 33749 ft | 495 kts | 233° |
| 2026-05-07 10:37 | 55.63879 | -86.05213 | 33743 ft | 495 kts | 233° |
| 2026-05-07 10:37 | 55.59665 | -86.14859 | 33743 ft | 495 kts | 233° |
| 2026-05-07 10:38 | 55.55447 | -86.24477 | 33743 ft | 495 kts | 233° |
| 2026-05-07 10:38 | 55.51216 | -86.34087 | 33746 ft | 495 kts | 233° |
| 2026-05-07 10:39 | 55.46978 | -86.43675 | 33754 ft | 495 kts | 233° |
| 2026-05-07 10:39 | 55.42733 | -86.53240 | 33747 ft | 495 kts | 233° |
| 2026-05-07 10:40 | 55.38481 | -86.62785 | 33743 ft | 495 kts | 233° |
| 2026-05-07 10:40 | 55.34218 | -86.72318 | 33750 ft | 495 kts | 233° |
| 2026-05-07 10:41 | 55.29948 | -86.81828 | 33747 ft | 495 kts | 232° |
| 2026-05-07 10:41 | 55.25672 | -86.91316 | 33744 ft | 495 kts | 232° |
| 2026-05-07 10:42 | 55.21390 | -87.00778 | 33743 ft | 495 kts | 232° |
| 2026-05-07 10:42 | 55.17097 | -87.10230 | 33748 ft | 495 kts | 232° |
| 2026-05-07 10:43 | 55.12802 | -87.19651 | 33747 ft | 495 kts | 232° |
| 2026-05-07 10:43 | 55.08523 | -87.29000 | 33747 ft | 495 kts | 232° |
| 2026-05-07 10:44 | 55.04213 | -87.38380 | 33743 ft | 495 kts | 232° |
| 2026-05-07 10:44 | 54.99895 | -87.47741 | 33748 ft | 495 kts | 232° |
| 2026-05-07 10:45 | 54.95571 | -87.57082 | 33746 ft | 495 kts | 232° |
| 2026-05-07 10:45 | 54.91240 | -87.66401 | 33747 ft | 495 kts | 232° |
| 2026-05-07 10:46 | 54.86899 | -87.75705 | 33749 ft | 495 kts | 232° |
| 2026-05-07 10:46 | 54.82553 | -87.84986 | 33743 ft | 495 kts | 232° |
| 2026-05-07 10:47 | 54.78201 | -87.94246 | 33743 ft | 495 kts | 231° |
| 2026-05-07 10:47 | 54.73844 | -88.03479 | 33747 ft | 495 kts | 231° |
| 2026-05-07 10:48 | 54.69477 | -88.12701 | 33747 ft | 495 kts | 231° |
| 2026-05-07 10:48 | 54.65102 | -88.21903 | 33747 ft | 495 kts | 231° |
| 2026-05-07 10:49 | 54.60720 | -88.31086 | 33748 ft | 495 kts | 231° |
| 2026-05-07 10:49 | 54.56335 | -88.40242 | 33743 ft | 495 kts | 231° |
| 2026-05-07 10:50 | 54.51937 | -88.49390 | 33747 ft | 495 kts | 231° |
| 2026-05-07 10:50 | 54.47534 | -88.58515 | 33743 ft | 495 kts | 231° |
| 2026-05-07 10:51 | 54.43125 | -88.67617 | 33750 ft | 495 kts | 231° |
| 2026-05-07 10:51 | 54.38711 | -88.76698 | 33750 ft | 495 kts | 231° |
| 2026-05-07 10:52 | 54.34291 | -88.85757 | 33747 ft | 495 kts | 231° |
| 2026-05-07 10:52 | 54.29863 | -88.94799 | 33747 ft | 495 kts | 231° |
| 2026-05-07 10:53 | 54.25431 | -89.03815 | 33743 ft | 495 kts | 231° |
| 2026-05-07 10:53 | 54.20990 | -89.12819 | 33744 ft | 495 kts | 230° |
| 2026-05-07 10:54 | 54.16543 | -89.21799 | 33745 ft | 495 kts | 230° |
| 2026-05-07 10:54 | 54.12087 | -89.30766 | 33746 ft | 495 kts | 230° |
| 2026-05-07 10:55 | 54.07625 | -89.39711 | 33750 ft | 495 kts | 230° |
| 2026-05-07 10:55 | 54.03156 | -89.48639 | 33747 ft | 495 kts | 230° |
| 2026-05-07 10:56 | 53.98685 | -89.57538 | 33746 ft | 495 kts | 230° |
| 2026-05-07 10:56 | 53.94200 | -89.66433 | 33749 ft | 495 kts | 230° |
| 2026-05-07 10:57 | 53.89711 | -89.75304 | 33746 ft | 495 kts | 230° |
| 2026-05-07 10:57 | 53.85215 | -89.84154 | 33745 ft | 495 kts | 230° |
| 2026-05-07 10:58 | 53.80807 | -89.93112 | 33746 ft | 494 kts | 234° |
| 2026-05-07 10:58 | 53.76794 | -90.02460 | 33743 ft | 494 kts | 235° |
| 2026-05-07 10:59 | 53.72766 | -90.11890 | 33750 ft | 494 kts | 235° |
| 2026-05-07 10:59 | 53.68729 | -90.21291 | 33745 ft | 494 kts | 235° |
| 2026-05-07 11:00 | 53.64680 | -90.30676 | 33750 ft | 494 kts | 235° |
| 2026-05-07 11:00 | 53.60621 | -90.40046 | 33746 ft | 494 kts | 235° |
| 2026-05-07 11:01 | 53.56554 | -90.49398 | 33743 ft | 494 kts | 235° |
| 2026-05-07 11:01 | 53.52482 | -90.58730 | 33751 ft | 494 kts | 234° |
| 2026-05-07 11:02 | 53.48402 | -90.68043 | 33746 ft | 494 kts | 234° |
| 2026-05-07 11:02 | 53.44313 | -90.77342 | 33747 ft | 494 kts | 234° |
| 2026-05-07 11:03 | 53.40221 | -90.86615 | 33743 ft | 494 kts | 234° |
| 2026-05-07 11:03 | 53.36118 | -90.95878 | 33746 ft | 494 kts | 234° |
| 2026-05-07 11:04 | 53.32012 | -91.05113 | 33745 ft | 494 kts | 234° |
| 2026-05-07 11:04 | 53.27897 | -91.14336 | 33746 ft | 494 kts | 234° |
| 2026-05-07 11:05 | 53.23774 | -91.23544 | 33742 ft | 494 kts | 234° |
| 2026-05-07 11:05 | 53.19644 | -91.32732 | 33747 ft | 494 kts | 234° |
| 2026-05-07 11:06 | 53.15506 | -91.41905 | 33745 ft | 494 kts | 234° |
| 2026-05-07 11:06 | 53.11390 | -91.50997 | 33747 ft | 495 kts | 234° |
| 2026-05-07 11:07 | 53.07236 | -91.60139 | 33746 ft | 495 kts | 234° |
| 2026-05-07 11:07 | 53.03078 | -91.69257 | 33747 ft | 494 kts | 234° |
| 2026-05-07 11:08 | 52.98917 | -91.78348 | 33743 ft | 494 kts | 233° |
| 2026-05-07 11:08 | 52.94745 | -91.87431 | 33747 ft | 494 kts | 233° |
| 2026-05-07 11:09 | 52.90567 | -91.96496 | 33749 ft | 494 kts | 233° |
| 2026-05-07 11:09 | 52.87095 | -92.04005 | 33746 ft | 494 kts | 233° |
| 2026-05-07 11:10 | 52.82902 | -92.13042 | 33745 ft | 494 kts | 233° |
| 2026-05-07 11:10 | 52.78676 | -92.22116 | 33746 ft | 494 kts | 233° |
| 2026-05-07 11:11 | 52.74501 | -92.31051 | 33747 ft | 494 kts | 233° |
| 2026-05-07 11:11 | 52.70290 | -92.40031 | 33745 ft | 494 kts | 233° |
| 2026-05-07 11:12 | 52.66071 | -92.48996 | 33746 ft | 494 kts | 233° |
| 2026-05-07 11:12 | 52.61846 | -92.57941 | 33753 ft | 494 kts | 233° |
| 2026-05-07 11:13 | 52.57614 | -92.66871 | 33748 ft | 494 kts | 233° |
| 2026-05-07 11:13 | 52.53377 | -92.75779 | 33742 ft | 494 kts | 233° |
| 2026-05-07 11:14 | 52.49129 | -92.84680 | 33745 ft | 494 kts | 233° |
| 2026-05-07 11:14 | 52.44877 | -92.93557 | 33744 ft | 494 kts | 233° |
| 2026-05-07 11:15 | 52.40623 | -93.02408 | 33743 ft | 494 kts | 232° |
| 2026-05-07 11:15 | 52.36360 | -93.11247 | 33743 ft | 494 kts | 232° |
| 2026-05-07 11:16 | 52.32086 | -93.20077 | 33747 ft | 494 kts | 232° |
| 2026-05-07 11:16 | 52.27809 | -93.28883 | 33746 ft | 494 kts | 232° |
| 2026-05-07 11:17 | 52.23522 | -93.37680 | 33745 ft | 494 kts | 232° |
| 2026-05-07 11:17 | 52.19230 | -93.46457 | 33749 ft | 494 kts | 232° |
| 2026-05-07 11:18 | 52.14932 | -93.55216 | 33747 ft | 494 kts | 232° |
| 2026-05-07 11:18 | 52.10628 | -93.63956 | 33749 ft | 494 kts | 232° |
| 2026-05-07 11:19 | 52.06347 | -93.72620 | 33749 ft | 494 kts | 232° |
| 2026-05-07 11:19 | 52.02030 | -93.81328 | 33754 ft | 494 kts | 232° |
| 2026-05-07 11:20 | 51.97710 | -93.90011 | 33744 ft | 494 kts | 232° |
| 2026-05-07 11:20 | 51.93383 | -93.98679 | 33745 ft | 494 kts | 232° |
| 2026-05-07 11:21 | 51.89054 | -94.07322 | 33746 ft | 494 kts | 232° |
| 2026-05-07 11:21 | 51.84713 | -94.15960 | 33751 ft | 494 kts | 232° |
| 2026-05-07 11:22 | 51.80365 | -94.24582 | 33744 ft | 494 kts | 231° |
| 2026-05-07 11:22 | 51.76014 | -94.33180 | 33753 ft | 494 kts | 231° |
| 2026-05-07 11:23 | 51.71656 | -94.41765 | 33750 ft | 494 kts | 231° |
| 2026-05-07 11:23 | 51.67290 | -94.50335 | 33742 ft | 494 kts | 231° |
| 2026-05-07 11:24 | 51.62918 | -94.58889 | 33743 ft | 494 kts | 231° |
| 2026-05-07 11:24 | 51.58543 | -94.67421 | 33750 ft | 494 kts | 231° |
| 2026-05-07 11:25 | 51.54159 | -94.75940 | 33747 ft | 494 kts | 231° |
| 2026-05-07 11:25 | 51.49772 | -94.84438 | 33745 ft | 494 kts | 231° |
| 2026-05-07 11:26 | 51.45380 | -94.92918 | 33749 ft | 494 kts | 231° |
| 2026-05-07 11:26 | 51.40981 | -95.01382 | 33748 ft | 494 kts | 231° |
| 2026-05-07 11:27 | 51.36574 | -95.09834 | 33748 ft | 494 kts | 231° |
| 2026-05-07 11:27 | 51.32197 | -95.18202 | 33743 ft | 493 kts | 231° |
| 2026-05-07 11:28 | 51.27779 | -95.26618 | 33746 ft | 493 kts | 231° |
| 2026-05-07 11:28 | 51.23358 | -95.35014 | 33748 ft | 493 kts | 231° |
| 2026-05-07 11:29 | 51.18934 | -95.43388 | 33746 ft | 493 kts | 231° |
| 2026-05-07 11:29 | 51.14501 | -95.51751 | 33744 ft | 493 kts | 230° |
| 2026-05-07 11:30 | 51.10063 | -95.60098 | 33750 ft | 493 kts | 230° |
| 2026-05-07 11:30 | 51.05623 | -95.68420 | 33743 ft | 493 kts | 230° |
| 2026-05-07 11:31 | 51.01175 | -95.76729 | 33744 ft | 493 kts | 230° |
| 2026-05-07 11:31 | 50.96725 | -95.85018 | 33748 ft | 493 kts | 230° |
| 2026-05-07 11:32 | 50.90038 | -95.97419 | 33745 ft | 493 kts | 230° |
| 2026-05-07 11:33 | 50.85573 | -96.05668 | 33743 ft | 493 kts | 230° |
| 2026-05-07 11:33 | 50.81103 | -96.13899 | 33746 ft | 493 kts | 230° |
| 2026-05-07 11:34 | 50.76628 | -96.22112 | 33753 ft | 493 kts | 230° |
| 2026-05-07 11:34 | 50.72149 | -96.30307 | 33745 ft | 492 kts | 230° |
| 2026-05-07 11:35 | 50.67665 | -96.38485 | 33747 ft | 492 kts | 230° |
| 2026-05-07 11:35 | 50.63172 | -96.46654 | 33744 ft | 492 kts | 230° |
| 2026-05-07 11:36 | 50.58678 | -96.54797 | 33746 ft | 492 kts | 230° |
| 2026-05-07 11:36 | 50.54206 | -96.62876 | 33745 ft | 492 kts | 230° |
| 2026-05-07 11:37 | 50.49701 | -96.70989 | 33746 ft | 492 kts | 229° |
| 2026-05-07 11:37 | 50.45187 | -96.79091 | 33747 ft | 492 kts | 229° |
| 2026-05-07 11:38 | 50.40671 | -96.87173 | 33745 ft | 492 kts | 229° |
| 2026-05-07 11:38 | 50.36148 | -96.95241 | 33745 ft | 492 kts | 229° |
| 2026-05-07 11:39 | 50.31628 | -97.03279 | 33749 ft | 492 kts | 229° |
| 2026-05-07 11:39 | 50.27096 | -97.11314 | 33749 ft | 492 kts | 229° |
| 2026-05-07 11:40 | 50.22556 | -97.19336 | 33746 ft | 492 kts | 229° |
| 2026-05-07 11:40 | 50.18014 | -97.27339 | 33747 ft | 492 kts | 229° |
| 2026-05-07 11:41 | 50.13463 | -97.35330 | 33749 ft | 492 kts | 229° |
| 2026-05-07 11:41 | 50.08909 | -97.43305 | 33742 ft | 492 kts | 229° |
| 2026-05-07 11:42 | 50.04348 | -97.51264 | 33743 ft | 492 kts | 229° |
| 2026-05-07 11:42 | 49.99789 | -97.59197 | 33746 ft | 492 kts | 229° |
| 2026-05-07 11:43 | 49.95216 | -97.67130 | 33742 ft | 492 kts | 229° |
| 2026-05-07 11:43 | 49.90641 | -97.75042 | 33746 ft | 492 kts | 229° |
| 2026-05-07 11:44 | 49.86060 | -97.82938 | 33750 ft | 492 kts | 229° |
| 2026-05-07 11:44 | 49.81475 | -97.90819 | 33744 ft | 492 kts | 229° |
| 2026-05-07 11:45 | 49.76916 | -97.98632 | 33744 ft | 492 kts | 228° |
| 2026-05-07 11:45 | 49.72325 | -98.06475 | 33746 ft | 492 kts | 228° |
| 2026-05-07 11:46 | 49.67726 | -98.14307 | 33748 ft | 492 kts | 228° |
| 2026-05-07 11:46 | 49.63116 | -98.22134 | 33742 ft | 492 kts | 228° |
| 2026-05-07 11:47 | 49.58504 | -98.29942 | 33744 ft | 492 kts | 228° |
| 2026-05-07 11:47 | 49.53882 | -98.37741 | 33749 ft | 492 kts | 228° |
| 2026-05-07 11:48 | 49.49259 | -98.45519 | 33745 ft | 492 kts | 228° |
| 2026-05-07 11:48 | 49.44622 | -98.53299 | 33745 ft | 493 kts | 228° |
| 2026-05-07 11:49 | 49.39979 | -98.61064 | 33746 ft | 493 kts | 228° |
| 2026-05-07 11:49 | 49.35330 | -98.68816 | 33743 ft | 493 kts | 228° |
| 2026-05-07 11:50 | 49.30674 | -98.76555 | 33746 ft | 493 kts | 228° |
| 2026-05-07 11:50 | 49.26018 | -98.84273 | 33747 ft | 493 kts | 227° |
| 2026-05-07 11:51 | 49.21356 | -98.91976 | 33746 ft | 493 kts | 227° |
| 2026-05-07 11:51 | 49.16687 | -98.99669 | 33750 ft | 493 kts | 227° |
| 2026-05-07 11:52 | 49.12023 | -99.07330 | 33742 ft | 493 kts | 227° |
| 2026-05-07 11:52 | 49.07344 | -99.14993 | 33744 ft | 493 kts | 227° |
| 2026-05-07 11:53 | 49.02661 | -99.22640 | 33747 ft | 493 kts | 227° |
| 2026-05-07 11:53 | 48.97980 | -99.30262 | 33742 ft | 493 kts | 227° |
| 2026-05-07 11:54 | 48.93289 | -99.37877 | 33748 ft | 493 kts | 227° |
| 2026-05-07 11:54 | 48.88620 | -99.45433 | 33742 ft | 493 kts | 227° |
| 2026-05-07 11:55 | 48.83917 | -99.53023 | 33749 ft | 493 kts | 227° |
| 2026-05-07 11:55 | 48.79209 | -99.60600 | 33749 ft | 493 kts | 227° |
| 2026-05-07 11:56 | 48.74492 | -99.68168 | 33742 ft | 493 kts | 227° |
| 2026-05-07 11:56 | 48.69742 | -99.75766 | 33746 ft | 493 kts | 227° |
| 2026-05-07 11:57 | 48.65051 | -99.83249 | 33748 ft | 493 kts | 227° |
| 2026-05-07 11:57 | 48.60326 | -99.90762 | 33744 ft | 493 kts | 227° |
| 2026-05-07 11:58 | 48.55598 | -99.98261 | 33744 ft | 493 kts | 227° |
| 2026-05-07 11:58 | 48.51668 | -100.04477 | 33744 ft | 493 kts | 227° |
| 2026-05-07 11:59 | 48.46928 | -100.11953 | 33748 ft | 492 kts | 226° |
| 2026-05-07 11:59 | 48.42187 | -100.19410 | 33742 ft | 492 kts | 226° |
| 2026-05-07 12:00 | 48.37445 | -100.26846 | 33744 ft | 492 kts | 226° |
| 2026-05-07 12:00 | 48.32692 | -100.34280 | 33743 ft | 492 kts | 226° |
| 2026-05-07 12:01 | 48.27938 | -100.41694 | 33754 ft | 492 kts | 226° |
| 2026-05-07 12:01 | 48.23181 | -100.49090 | 33749 ft | 492 kts | 226° |
| 2026-05-07 12:02 | 48.18416 | -100.56477 | 33749 ft | 492 kts | 226° |
| 2026-05-07 12:02 | 48.13635 | -100.63870 | 33747 ft | 492 kts | 226° |
| 2026-05-07 12:03 | 48.08863 | -100.71227 | 33742 ft | 492 kts | 226° |
| 2026-05-07 12:03 | 48.04083 | -100.78575 | 33744 ft | 492 kts | 226° |
| 2026-05-07 12:04 | 47.99305 | -100.85899 | 33744 ft | 492 kts | 226° |
| 2026-05-07 12:04 | 47.94518 | -100.93217 | 33742 ft | 492 kts | 226° |
| 2026-05-07 12:05 | 47.89727 | -101.00519 | 33755 ft | 493 kts | 226° |
| 2026-05-07 12:05 | 47.84919 | -101.07827 | 33749 ft | 493 kts | 226° |
| 2026-05-07 12:06 | 47.80112 | -101.15114 | 33747 ft | 493 kts | 226° |
| 2026-05-07 12:06 | 47.75331 | -101.22341 | 33744 ft | 493 kts | 226° |
| 2026-05-07 12:07 | 47.70517 | -101.29596 | 33746 ft | 493 kts | 226° |
| 2026-05-07 12:07 | 47.65665 | -101.36889 | 33746 ft | 493 kts | 226° |
| 2026-05-07 12:08 | 47.60872 | -101.44073 | 33742 ft | 493 kts | 225° |
| 2026-05-07 12:08 | 47.56047 | -101.51286 | 33749 ft | 492 kts | 225° |
| 2026-05-07 12:09 | 47.51217 | -101.58484 | 33743 ft | 492 kts | 225° |
| 2026-05-07 12:09 | 47.46380 | -101.65675 | 33744 ft | 493 kts | 225° |
| 2026-05-07 12:10 | 47.41538 | -101.72852 | 33746 ft | 493 kts | 225° |
| 2026-05-07 12:10 | 47.36693 | -101.80014 | 33748 ft | 493 kts | 225° |
| 2026-05-07 12:11 | 47.31844 | -101.87163 | 33748 ft | 493 kts | 225° |
| 2026-05-07 12:11 | 47.26991 | -101.94296 | 33744 ft | 492 kts | 225° |
| 2026-05-07 12:12 | 47.22139 | -102.01410 | 33745 ft | 493 kts | 225° |
| 2026-05-07 12:12 | 47.17273 | -102.08525 | 33744 ft | 492 kts | 225° |
| 2026-05-07 12:13 | 47.12407 | -102.15620 | 33749 ft | 492 kts | 225° |
| 2026-05-07 12:13 | 47.07537 | -102.22701 | 33744 ft | 492 kts | 225° |
| 2026-05-07 12:14 | 47.02682 | -102.29742 | 33743 ft | 492 kts | 225° |
| 2026-05-07 12:14 | 46.97799 | -102.36804 | 33745 ft | 492 kts | 225° |
| 2026-05-07 12:15 | 46.92913 | -102.43851 | 33746 ft | 493 kts | 225° |
| 2026-05-07 12:15 | 46.88018 | -102.50892 | 33745 ft | 493 kts | 225° |
| 2026-05-07 12:16 | 46.83123 | -102.57915 | 33745 ft | 493 kts | 225° |
| 2026-05-07 12:16 | 46.78222 | -102.64926 | 33747 ft | 493 kts | 225° |
| 2026-05-07 12:17 | 46.73316 | -102.71926 | 33747 ft | 493 kts | 225° |
| 2026-05-07 12:17 | 46.68401 | -102.78920 | 33745 ft | 493 kts | 224° |
| 2026-05-07 12:18 | 46.63484 | -102.85898 | 33741 ft | 493 kts | 224° |
| 2026-05-07 12:18 | 46.58561 | -102.92867 | 33744 ft | 493 kts | 224° |
| 2026-05-07 12:19 | 46.53635 | -102.99820 | 33744 ft | 493 kts | 224° |
| 2026-05-07 12:19 | 46.48709 | -103.06755 | 33748 ft | 494 kts | 224° |
| 2026-05-07 12:20 | 46.43772 | -103.13687 | 33744 ft | 493 kts | 224° |
| 2026-05-07 12:20 | 46.38831 | -103.20606 | 33747 ft | 494 kts | 224° |
| 2026-05-07 12:21 | 46.33883 | -103.27516 | 33747 ft | 494 kts | 224° |
| 2026-05-07 12:21 | 46.28931 | -103.34415 | 33742 ft | 494 kts | 224° |
| 2026-05-07 12:22 | 46.23978 | -103.41296 | 33745 ft | 494 kts | 224° |
| 2026-05-07 12:22 | 46.19019 | -103.48167 | 33744 ft | 494 kts | 224° |
| 2026-05-07 12:23 | 46.14092 | -103.54976 | 33746 ft | 494 kts | 224° |
| 2026-05-07 12:23 | 46.09124 | -103.61825 | 33741 ft | 494 kts | 224° |
| 2026-05-07 12:24 | 46.04151 | -103.68661 | 33745 ft | 494 kts | 224° |
| 2026-05-07 12:24 | 45.99178 | -103.75479 | 33750 ft | 494 kts | 224° |
| 2026-05-07 12:25 | 45.94197 | -103.82292 | 33745 ft | 494 kts | 224° |
| 2026-05-07 12:25 | 45.89217 | -103.89084 | 33748 ft | 493 kts | 224° |
| 2026-05-07 12:26 | 45.84231 | -103.95868 | 33743 ft | 493 kts | 224° |
| 2026-05-07 12:26 | 45.79245 | -104.02634 | 33742 ft | 494 kts | 224° |
| 2026-05-07 12:27 | 45.74249 | -104.09395 | 33746 ft | 494 kts | 223° |
| 2026-05-07 12:27 | 45.69250 | -104.16144 | 33743 ft | 494 kts | 223° |
| 2026-05-07 12:28 | 45.64239 | -104.22891 | 33747 ft | 495 kts | 223° |
| 2026-05-07 12:28 | 45.59224 | -104.29626 | 33746 ft | 494 kts | 223° |
| 2026-05-07 12:29 | 45.54209 | -104.36345 | 33744 ft | 494 kts | 223° |
| 2026-05-07 12:29 | 45.49192 | -104.43048 | 33752 ft | 494 kts | 223° |
| 2026-05-07 12:30 | 45.44173 | -104.49737 | 33742 ft | 494 kts | 223° |
| 2026-05-07 12:30 | 45.39184 | -104.56368 | 33748 ft | 494 kts | 223° |
| 2026-05-07 12:31 | 45.34154 | -104.63038 | 33744 ft | 494 kts | 223° |
| 2026-05-07 12:31 | 45.29122 | -104.69693 | 33747 ft | 494 kts | 223° |
| 2026-05-07 12:32 | 45.24080 | -104.76344 | 33752 ft | 494 kts | 223° |
| 2026-05-07 12:32 | 45.19035 | -104.82982 | 33742 ft | 494 kts | 223° |
| 2026-05-07 12:33 | 45.11462 | -104.92916 | 33741 ft | 494 kts | 223° |
| 2026-05-07 12:33 | 45.06403 | -104.99531 | 33747 ft | 495 kts | 223° |
| 2026-05-07 12:34 | 45.01345 | -105.06128 | 33743 ft | 495 kts | 223° |
| 2026-05-07 12:34 | 44.96279 | -105.12719 | 33749 ft | 495 kts | 223° |
| 2026-05-07 12:35 | 44.91210 | -105.19297 | 33747 ft | 495 kts | 223° |
| 2026-05-07 12:35 | 44.86140 | -105.25860 | 33741 ft | 494 kts | 223° |
| 2026-05-07 12:36 | 44.81071 | -105.32405 | 33747 ft | 494 kts | 223° |
| 2026-05-07 12:36 | 44.75997 | -105.38940 | 33747 ft | 494 kts | 223° |
| 2026-05-07 12:37 | 44.70921 | -105.45462 | 33745 ft | 494 kts | 222° |
| 2026-05-07 12:37 | 44.65838 | -105.51976 | 33746 ft | 495 kts | 222° |
| 2026-05-07 12:38 | 44.60782 | -105.58441 | 33750 ft | 495 kts | 222° |
| 2026-05-07 12:38 | 44.55652 | -105.64982 | 33753 ft | 494 kts | 222° |
| 2026-05-07 12:39 | 44.50552 | -105.71470 | 33747 ft | 495 kts | 222° |
| 2026-05-07 12:39 | 44.45482 | -105.77904 | 33745 ft | 495 kts | 222° |
| 2026-05-07 12:40 | 44.40291 | -105.84474 | 33742 ft | 495 kts | 222° |
| 2026-05-07 12:40 | 44.35175 | -105.90934 | 33750 ft | 495 kts | 222° |
| 2026-05-07 12:41 | 44.30059 | -105.97378 | 33745 ft | 495 kts | 222° |
| 2026-05-07 12:41 | 44.24937 | -106.03813 | 33744 ft | 495 kts | 222° |
| 2026-05-07 12:42 | 44.19837 | -106.10168 | 33744 ft | 494 kts | 220° |
| 2026-05-07 12:42 | 44.14524 | -106.16254 | 33741 ft | 494 kts | 219° |
| 2026-05-07 12:43 | 44.09190 | -106.22303 | 33744 ft | 494 kts | 219° |
| 2026-05-07 12:43 | 44.03852 | -106.28347 | 33743 ft | 495 kts | 219° |
| 2026-05-07 12:44 | 43.98512 | -106.34382 | 33752 ft | 495 kts | 219° |
| 2026-05-07 12:44 | 43.93165 | -106.40411 | 33741 ft | 495 kts | 219° |
| 2026-05-07 12:45 | 43.87816 | -106.46429 | 33744 ft | 495 kts | 219° |
| 2026-05-07 12:45 | 43.82461 | -106.52439 | 33746 ft | 495 kts | 219° |
| 2026-05-07 12:46 | 43.77099 | -106.58443 | 33744 ft | 496 kts | 219° |
| 2026-05-07 12:46 | 43.71733 | -106.64436 | 33745 ft | 495 kts | 219° |
| 2026-05-07 12:47 | 43.66366 | -106.70416 | 33747 ft | 495 kts | 219° |
| 2026-05-07 12:47 | 43.60998 | -106.76384 | 33748 ft | 495 kts | 218° |
| 2026-05-07 12:48 | 43.55621 | -106.82352 | 33745 ft | 496 kts | 218° |
| 2026-05-07 12:48 | 43.51146 | -106.87309 | 33748 ft | 496 kts | 218° |
| 2026-05-07 12:49 | 43.45764 | -106.93270 | 33748 ft | 496 kts | 218° |
| 2026-05-07 12:49 | 43.40372 | -106.99204 | 33745 ft | 496 kts | 218° |
| 2026-05-07 12:50 | 43.34989 | -107.05128 | 33751 ft | 496 kts | 217° |
| 2026-05-07 12:50 | 43.29590 | -107.11032 | 33741 ft | 496 kts | 217° |
| 2026-05-07 12:51 | 43.24200 | -107.16930 | 33749 ft | 495 kts | 217° |
| 2026-05-07 12:51 | 43.18803 | -107.22807 | 33741 ft | 496 kts | 217° |
| 2026-05-07 12:52 | 43.13400 | -107.28692 | 33750 ft | 496 kts | 217° |
| 2026-05-07 12:52 | 43.07998 | -107.34565 | 33745 ft | 496 kts | 217° |
| 2026-05-07 12:53 | 43.02595 | -107.40426 | 33747 ft | 495 kts | 217° |
| 2026-05-07 12:53 | 42.97192 | -107.46275 | 33748 ft | 495 kts | 217° |
| 2026-05-07 12:54 | 42.91788 | -107.52100 | 33748 ft | 495 kts | 216° |
| 2026-05-07 12:54 | 42.86375 | -107.57918 | 33745 ft | 495 kts | 217° |
| 2026-05-07 12:55 | 42.80960 | -107.63736 | 33749 ft | 495 kts | 217° |
| 2026-05-07 12:55 | 42.75547 | -107.69539 | 33747 ft | 495 kts | 217° |
| 2026-05-07 12:56 | 42.70128 | -107.75331 | 33744 ft | 495 kts | 216° |
| 2026-05-07 12:56 | 42.64753 | -107.81069 | 33745 ft | 494 kts | 216° |
| 2026-05-07 12:57 | 42.59329 | -107.86833 | 33745 ft | 495 kts | 216° |
| 2026-05-07 12:57 | 42.53909 | -107.92586 | 33746 ft | 495 kts | 216° |
| 2026-05-07 12:58 | 42.48482 | -107.98336 | 33741 ft | 495 kts | 216° |
| 2026-05-07 12:58 | 42.43061 | -108.04071 | 33742 ft | 494 kts | 216° |
| 2026-05-07 12:59 | 42.37642 | -108.09788 | 33742 ft | 493 kts | 216° |
| 2026-05-07 12:59 | 42.32216 | -108.15485 | 33746 ft | 494 kts | 216° |
| 2026-05-07 13:00 | 42.26850 | -108.21339 | 33747 ft | 494 kts | 219° |
| 2026-05-07 13:00 | 42.21658 | -108.27431 | 33747 ft | 494 kts | 219° |
| 2026-05-07 13:01 | 42.16463 | -108.33514 | 33749 ft | 494 kts | 219° |
| 2026-05-07 13:01 | 42.11264 | -108.39589 | 33748 ft | 495 kts | 219° |
| 2026-05-07 13:02 | 42.06059 | -108.45660 | 33749 ft | 494 kts | 219° |
| 2026-05-07 13:02 | 42.00855 | -108.51712 | 33744 ft | 494 kts | 219° |
| 2026-05-07 13:03 | 41.95645 | -108.57754 | 33752 ft | 494 kts | 219° |
| 2026-05-07 13:03 | 41.90432 | -108.63787 | 33753 ft | 495 kts | 219° |
| 2026-05-07 13:04 | 41.85214 | -108.69817 | 33744 ft | 494 kts | 219° |
| 2026-05-07 13:04 | 41.80003 | -108.75825 | 33749 ft | 494 kts | 218° |
| 2026-05-07 13:05 | 41.74818 | -108.81776 | 33748 ft | 494 kts | 219° |
| 2026-05-07 13:05 | 41.69597 | -108.87766 | 33745 ft | 494 kts | 219° |
| 2026-05-07 13:06 | 41.64368 | -108.93748 | 33743 ft | 494 kts | 219° |
| 2026-05-07 13:06 | 41.59135 | -108.99726 | 33750 ft | 494 kts | 219° |
| 2026-05-07 13:07 | 41.53907 | -109.05687 | 33752 ft | 494 kts | 219° |
| 2026-05-07 13:07 | 41.48668 | -109.11646 | 33742 ft | 494 kts | 219° |
| 2026-05-07 13:08 | 41.43440 | -109.17592 | 33744 ft | 492 kts | 218° |
| 2026-05-07 13:08 | 41.38205 | -109.23499 | 33744 ft | 493 kts | 218° |
| 2026-05-07 13:09 | 41.32972 | -109.29416 | 33743 ft | 493 kts | 218° |
| 2026-05-07 13:09 | 41.27734 | -109.35318 | 33748 ft | 493 kts | 218° |
| 2026-05-07 13:10 | 41.22496 | -109.41208 | 33746 ft | 493 kts | 218° |
| 2026-05-07 13:10 | 41.17247 | -109.47089 | 33747 ft | 494 kts | 218° |
| 2026-05-07 13:11 | 41.11988 | -109.52968 | 33752 ft | 494 kts | 219° |
| 2026-05-07 13:11 | 41.06725 | -109.58855 | 33750 ft | 494 kts | 219° |
| 2026-05-07 13:12 | 41.01467 | -109.64731 | 33742 ft | 494 kts | 219° |
| 2026-05-07 13:12 | 40.96199 | -109.70586 | 33745 ft | 494 kts | 219° |
| 2026-05-07 13:13 | 40.90976 | -109.76406 | 33751 ft | 492 kts | 217° |
| 2026-05-07 13:13 | 40.85731 | -109.82224 | 33745 ft | 489 kts | 216° |
| 2026-05-07 13:14 | 40.80527 | -109.87967 | 33750 ft | 483 kts | 216° |
| 2026-05-07 13:14 | 40.75409 | -109.93603 | 33739 ft | 480 kts | 216° |
| 2026-05-07 13:15 | 40.70277 | -109.99242 | 33747 ft | 480 kts | 216° |
| 2026-05-07 13:15 | 40.65119 | -110.04901 | 33746 ft | 483 kts | 216° |
| 2026-05-07 13:16 | 40.59902 | -110.10596 | 33737 ft | 490 kts | 216° |
| 2026-05-07 13:16 | 40.54659 | -110.16335 | 33744 ft | 490 kts | 217° |
| 2026-05-07 13:17 | 40.49415 | -110.22056 | 33743 ft | 491 kts | 217° |
| 2026-05-07 13:17 | 40.44155 | -110.27800 | 33746 ft | 492 kts | 217° |
| 2026-05-07 13:18 | 40.38877 | -110.33541 | 33745 ft | 493 kts | 218° |
| 2026-05-07 13:18 | 40.33586 | -110.39288 | 33748 ft | 493 kts | 218° |
| 2026-05-07 13:19 | 40.28297 | -110.45015 | 33741 ft | 493 kts | 218° |
| 2026-05-07 13:19 | 40.22993 | -110.50743 | 33746 ft | 494 kts | 218° |
| 2026-05-07 13:20 | 40.17688 | -110.56462 | 33750 ft | 494 kts | 218° |
| 2026-05-07 13:20 | 40.12416 | -110.62134 | 33742 ft | 493 kts | 218° |
| 2026-05-07 13:21 | 40.07117 | -110.67839 | 33740 ft | 491 kts | 217° |
| 2026-05-07 13:21 | 40.01805 | -110.73519 | 33750 ft | 490 kts | 216° |
| 2026-05-07 13:22 | 39.96581 | -110.79098 | 33740 ft | 489 kts | 216° |
| 2026-05-07 13:22 | 39.91302 | -110.84722 | 33744 ft | 490 kts | 216° |
| 2026-05-07 13:23 | 39.86044 | -110.90330 | 33743 ft | 486 kts | 216° |
| 2026-05-07 13:23 | 39.80764 | -110.95916 | 33743 ft | 490 kts | 216° |
| 2026-05-07 13:24 | 39.75513 | -111.01511 | 33746 ft | 487 kts | 216° |
| 2026-05-07 13:24 | 39.70246 | -111.07071 | 33743 ft | 487 kts | 216° |
| 2026-05-07 13:25 | 39.64988 | -111.12618 | 33742 ft | 486 kts | 215° |
| 2026-05-07 13:25 | 39.59769 | -111.18186 | 33748 ft | 484 kts | 216° |
| 2026-05-07 13:26 | 39.54578 | -111.23785 | 33738 ft | 487 kts | 216° |
| 2026-05-07 13:26 | 39.49369 | -111.29400 | 33748 ft | 484 kts | 216° |
| 2026-05-07 13:27 | 39.44199 | -111.34952 | 33748 ft | 482 kts | 215° |
| 2026-05-07 13:27 | 39.39029 | -111.40480 | 33747 ft | 483 kts | 216° |
| 2026-05-07 13:28 | 39.33859 | -111.46008 | 33745 ft | 482 kts | 216° |
| 2026-05-07 13:28 | 39.28661 | -111.51548 | 33739 ft | 486 kts | 216° |
| 2026-05-07 13:29 | 39.23418 | -111.57118 | 33747 ft | 489 kts | 216° |
| 2026-05-07 13:29 | 39.18208 | -111.62662 | 33747 ft | 489 kts | 216° |
| 2026-05-07 13:30 | 39.12938 | -111.68223 | 33742 ft | 491 kts | 218° |
| 2026-05-07 13:30 | 39.07626 | -111.73829 | 33743 ft | 493 kts | 219° |
| 2026-05-07 13:31 | 39.02328 | -111.79450 | 33744 ft | 493 kts | 219° |
| 2026-05-07 13:31 | 38.97006 | -111.85063 | 33744 ft | 493 kts | 219° |
| 2026-05-07 13:32 | 38.91700 | -111.90647 | 33750 ft | 493 kts | 219° |
| 2026-05-07 13:32 | 38.86393 | -111.96217 | 33741 ft | 493 kts | 219° |
| 2026-05-07 13:33 | 38.81082 | -112.01778 | 33746 ft | 493 kts | 219° |
| 2026-05-07 13:33 | 38.75766 | -112.07335 | 33745 ft | 493 kts | 219° |
| 2026-05-07 13:34 | 38.67787 | -112.15652 | 33752 ft | 493 kts | 219° |
| 2026-05-07 13:35 | 38.62464 | -112.21187 | 33744 ft | 493 kts | 219° |
| 2026-05-07 13:35 | 38.57140 | -112.26715 | 33745 ft | 493 kts | 218° |
| 2026-05-07 13:36 | 38.51844 | -112.32241 | 33755 ft | 488 kts | 216° |
| 2026-05-07 13:36 | 38.46585 | -112.37665 | 33741 ft | 484 kts | 215° |
| 2026-05-07 13:37 | 38.41404 | -112.42992 | 33743 ft | 480 kts | 214° |
| 2026-05-07 13:37 | 38.36199 | -112.48338 | 33742 ft | 483 kts | 215° |
| 2026-05-07 13:38 | 38.30925 | -112.53738 | 33741 ft | 488 kts | 216° |
| 2026-05-07 13:38 | 38.25605 | -112.59186 | 33746 ft | 491 kts | 217° |
| 2026-05-07 13:39 | 38.20273 | -112.64651 | 33747 ft | 492 kts | 218° |
| 2026-05-07 13:39 | 38.15854 | -112.69199 | 33748 ft | 491 kts | 217° |
| 2026-05-07 13:40 | 38.10527 | -112.74642 | 33755 ft | 490 kts | 216° |
| 2026-05-07 13:40 | 38.05214 | -112.80038 | 33744 ft | 490 kts | 216° |
| 2026-05-07 13:41 | 37.99881 | -112.85442 | 33740 ft | 491 kts | 217° |
| 2026-05-07 13:41 | 37.94549 | -112.90854 | 33750 ft | 491 kts | 217° |
| 2026-05-07 13:42 | 37.89202 | -112.96257 | 33747 ft | 492 kts | 218° |
| 2026-05-07 13:42 | 37.83855 | -113.01662 | 33748 ft | 492 kts | 218° |
| 2026-05-07 13:43 | 37.78355 | -113.06941 | 33742 ft | 492 kts | 213° |
| 2026-05-07 13:43 | 37.72521 | -113.11444 | 33747 ft | 491 kts | 209° |
| 2026-05-07 13:44 | 37.66601 | -113.15757 | 33743 ft | 491 kts | 209° |
| 2026-05-07 13:44 | 37.60678 | -113.20072 | 33744 ft | 491 kts | 209° |
| 2026-05-07 13:45 | 37.54763 | -113.24392 | 33751 ft | 491 kts | 208° |
| 2026-05-07 13:45 | 37.48855 | -113.28688 | 33744 ft | 491 kts | 209° |
| 2026-05-07 13:46 | 37.42945 | -113.32989 | 33752 ft | 489 kts | 206° |
| 2026-05-07 13:46 | 37.37059 | -113.37258 | 33745 ft | 489 kts | 208° |
| 2026-05-07 13:47 | 37.31168 | -113.41511 | 33747 ft | 488 kts | 208° |
| 2026-05-07 13:47 | 37.25252 | -113.45767 | 33750 ft | 490 kts | 209° |
| 2026-05-07 13:48 | 37.19344 | -113.50046 | 33745 ft | 489 kts | 209° |
| 2026-05-07 13:48 | 37.13461 | -113.54294 | 33744 ft | 487 kts | 209° |
| 2026-05-07 13:49 | 37.07589 | -113.58519 | 33744 ft | 486 kts | 209° |
| 2026-05-07 13:49 | 37.01768 | -113.62698 | 33746 ft | 485 kts | 209° |
| 2026-05-07 13:50 | 36.95903 | -113.66900 | 33746 ft | 486 kts | 209° |
| 2026-05-07 13:50 | 36.90025 | -113.71103 | 33744 ft | 488 kts | 209° |
| 2026-05-07 13:51 | 36.84121 | -113.75329 | 33750 ft | 489 kts | 207° |
| 2026-05-07 13:51 | 36.78214 | -113.79538 | 33745 ft | 488 kts | 207° |
| 2026-05-07 13:52 | 36.72296 | -113.83714 | 33747 ft | 490 kts | 208° |
| 2026-05-07 13:52 | 36.66370 | -113.87920 | 33747 ft | 489 kts | 208° |
| 2026-05-07 13:53 | 36.60466 | -113.92106 | 33750 ft | 488 kts | 208° |
| 2026-05-07 13:53 | 36.54561 | -113.96283 | 33743 ft | 487 kts | 208° |
| 2026-05-07 13:54 | 36.48681 | -114.00436 | 33744 ft | 486 kts | 208° |
| 2026-05-07 13:54 | 36.42796 | -114.04585 | 33746 ft | 485 kts | 208° |
| 2026-05-07 13:55 | 36.36931 | -114.08713 | 33750 ft | 484 kts | 208° |
| 2026-05-07 13:55 | 36.31055 | -114.12841 | 33740 ft | 486 kts | 208° |
| 2026-05-07 13:56 | 36.25157 | -114.16978 | 33740 ft | 488 kts | 208° |
| 2026-05-07 13:56 | 36.19283 | -114.21092 | 33750 ft | 488 kts | 208° |
| 2026-05-07 13:57 | 36.13425 | -114.25341 | 33752 ft | 488 kts | 212° |
| 2026-05-07 13:57 | 36.07979 | -114.30315 | 33747 ft | 485 kts | 220° |
| 2026-05-07 13:58 | 36.03114 | -114.36043 | 33747 ft | 483 kts | 228° |
| 2026-05-07 13:58 | 35.98639 | -114.42253 | 33744 ft | 484 kts | 229° |
| 2026-05-07 13:59 | 35.94167 | -114.48484 | 33748 ft | 484 kts | 229° |
| 2026-05-07 13:59 | 35.89678 | -114.54695 | 33746 ft | 485 kts | 229° |
| 2026-05-07 14:00 | 35.85180 | -114.60896 | 33743 ft | 485 kts | 229° |
| 2026-05-07 14:00 | 35.80679 | -114.67086 | 33742 ft | 484 kts | 229° |
| 2026-05-07 14:01 | 35.76180 | -114.73262 | 33745 ft | 483 kts | 229° |
| 2026-05-07 14:01 | 35.71680 | -114.79429 | 33744 ft | 484 kts | 229° |
| 2026-05-07 14:02 | 35.67160 | -114.85610 | 33753 ft | 487 kts | 229° |
| 2026-05-07 14:02 | 35.62624 | -114.91817 | 33755 ft | 487 kts | 229° |
| 2026-05-07 14:03 | 35.58092 | -114.98015 | 33741 ft | 487 kts | 229° |
| 2026-05-07 14:03 | 35.53555 | -115.04205 | 33744 ft | 488 kts | 229° |
| 2026-05-07 14:04 | 35.49015 | -115.10342 | 33745 ft | 489 kts | 227° |
| 2026-05-07 14:04 | 35.44305 | -115.16489 | 33743 ft | 490 kts | 227° |
| 2026-05-07 14:04 | 35.41998 | -115.19486 | 33528 ft | 489 kts | 227° |
| 2026-05-07 14:05 | 35.39652 | -115.22537 | 33271 ft | 486 kts | 227° |
| 2026-05-07 14:05 | 35.37352 | -115.25530 | 33016 ft | 483 kts | 227° |
| 2026-05-07 14:05 | 35.35074 | -115.28494 | 32767 ft | 480 kts | 227° |
| 2026-05-07 14:05 | 35.32788 | -115.31467 | 32515 ft | 478 kts | 227° |
| 2026-05-07 14:06 | 35.30504 | -115.34436 | 32259 ft | 478 kts | 227° |
| 2026-05-07 14:06 | 35.28231 | -115.37390 | 32013 ft | 479 kts | 227° |
| 2026-05-07 14:06 | 35.25937 | -115.40385 | 31760 ft | 479 kts | 226° |
| 2026-05-07 14:06 | 35.23648 | -115.43361 | 31510 ft | 479 kts | 225° |
| 2026-05-07 14:07 | 35.21361 | -115.46323 | 31258 ft | 479 kts | 225° |
| 2026-05-07 14:07 | 35.19067 | -115.49279 | 31005 ft | 479 kts | 225° |
| 2026-05-07 14:07 | 35.16771 | -115.52236 | 30762 ft | 479 kts | 225° |
| 2026-05-07 14:07 | 35.14478 | -115.55194 | 30505 ft | 479 kts | 225° |
| 2026-05-07 14:08 | 35.12185 | -115.58151 | 30246 ft | 479 kts | 226° |
| 2026-05-07 14:08 | 35.09884 | -115.61109 | 30011 ft | 479 kts | 225° |
| 2026-05-07 14:08 | 35.07563 | -115.64083 | 29763 ft | 479 kts | 225° |
| 2026-05-07 14:08 | 35.05260 | -115.67032 | 29506 ft | 479 kts | 225° |
| 2026-05-07 14:09 | 35.02957 | -115.69978 | 29255 ft | 479 kts | 225° |
| 2026-05-07 14:09 | 35.00657 | -115.72912 | 29006 ft | 478 kts | 225° |
| 2026-05-07 14:09 | 34.98355 | -115.75845 | 28746 ft | 478 kts | 224° |
| 2026-05-07 14:09 | 34.96050 | -115.78775 | 28490 ft | 478 kts | 225° |
| 2026-05-07 14:10 | 34.93729 | -115.81731 | 28246 ft | 478 kts | 224° |
| 2026-05-07 14:10 | 34.91430 | -115.84659 | 27989 ft | 477 kts | 224° |
| 2026-05-07 14:10 | 34.89129 | -115.87586 | 27746 ft | 477 kts | 224° |
| 2026-05-07 14:10 | 34.86833 | -115.90502 | 27492 ft | 475 kts | 223° |
| 2026-05-07 14:11 | 34.84516 | -115.93446 | 27248 ft | 473 kts | 223° |
| 2026-05-07 14:11 | 34.82248 | -115.96319 | 26991 ft | 470 kts | 223° |
| 2026-05-07 14:11 | 34.79964 | -115.99208 | 26733 ft | 467 kts | 222° |
| 2026-05-07 14:11 | 34.77724 | -116.02040 | 26488 ft | 463 kts | 222° |
| 2026-05-07 14:12 | 34.75495 | -116.04867 | 26238 ft | 462 kts | 222° |
| 2026-05-07 14:12 | 34.73280 | -116.07692 | 25988 ft | 460 kts | 222° |
| 2026-05-07 14:12 | 34.71063 | -116.10516 | 25735 ft | 462 kts | 222° |
| 2026-05-07 14:12 | 34.68828 | -116.13363 | 25485 ft | 460 kts | 222° |
| 2026-05-07 14:13 | 34.66623 | -116.16172 | 25231 ft | 457 kts | 222° |
| 2026-05-07 14:13 | 34.64425 | -116.18966 | 24979 ft | 455 kts | 222° |
| 2026-05-07 14:13 | 34.62252 | -116.21723 | 24733 ft | 449 kts | 222° |
| 2026-05-07 14:13 | 34.60087 | -116.24470 | 24479 ft | 448 kts | 222° |
| 2026-05-07 14:14 | 34.57934 | -116.27196 | 24284 ft | 447 kts | 222° |
| 2026-05-07 14:14 | 34.55817 | -116.29871 | 24121 ft | 443 kts | 223° |
| 2026-05-07 14:14 | 34.53664 | -116.32589 | 23933 ft | 439 kts | 223° |
| 2026-05-07 14:14 | 34.51581 | -116.35231 | 23776 ft | 440 kts | 223° |
| 2026-05-07 14:15 | 34.49431 | -116.37945 | 23754 ft | 440 kts | 222° |
| 2026-05-07 14:15 | 34.47318 | -116.40614 | 23750 ft | 443 kts | 222° |
| 2026-05-07 14:15 | 34.45188 | -116.43301 | 23745 ft | 436 kts | 222° |
| 2026-05-07 14:15 | 34.43185 | -116.46037 | 23738 ft | 421 kts | 227° |
| 2026-05-07 14:16 | 34.41485 | -116.48855 | 23735 ft | 408 kts | 232° |
| 2026-05-07 14:16 | 34.40048 | -116.51746 | 23740 ft | 406 kts | 237° |
| 2026-05-07 14:16 | 34.38753 | -116.54791 | 23744 ft | 406 kts | 239° |
| 2026-05-07 14:16 | 34.37495 | -116.57854 | 23745 ft | 405 kts | 239° |
| 2026-05-07 14:17 | 34.36244 | -116.60908 | 23490 ft | 403 kts | 239° |
| 2026-05-07 14:17 | 34.35003 | -116.63932 | 23188 ft | 398 kts | 239° |
| 2026-05-07 14:17 | 34.33775 | -116.66909 | 22886 ft | 392 kts | 240° |
| 2026-05-07 14:17 | 34.32574 | -116.69849 | 22587 ft | 386 kts | 240° |
| 2026-05-07 14:18 | 34.31405 | -116.72749 | 22295 ft | 380 kts | 242° |
| 2026-05-07 14:18 | 34.30249 | -116.75604 | 21989 ft | 375 kts | 243° |
| 2026-05-07 14:18 | 34.29117 | -116.78442 | 21680 ft | 373 kts | 243° |
| 2026-05-07 14:18 | 34.27980 | -116.81265 | 21376 ft | 373 kts | 244° |
| 2026-05-07 14:19 | 34.26849 | -116.84084 | 21072 ft | 372 kts | 244° |
| 2026-05-07 14:19 | 34.25721 | -116.86893 | 20769 ft | 370 kts | 245° |
| 2026-05-07 14:19 | 34.24592 | -116.89693 | 20467 ft | 369 kts | 245° |
| 2026-05-07 14:19 | 34.23467 | -116.92480 | 20164 ft | 368 kts | 245° |
| 2026-05-07 14:20 | 34.22342 | -116.95260 | 19856 ft | 369 kts | 246° |
| 2026-05-07 14:20 | 34.21294 | -116.98098 | 19548 ft | 367 kts | 250° |
| 2026-05-07 14:20 | 34.20402 | -117.00976 | 19069 ft | 364 kts | 252° |
| 2026-05-07 14:20 | 34.19615 | -117.03858 | 18702 ft | 359 kts | 253° |
| 2026-05-07 14:21 | 34.18836 | -117.06723 | 18117 ft | 359 kts | 253° |
| 2026-05-07 14:21 | 34.18061 | -117.09603 | 17739 ft | 356 kts | 253° |
| 2026-05-07 14:21 | 34.17304 | -117.12415 | 17399 ft | 349 kts | 252° |
| 2026-05-07 14:21 | 34.16556 | -117.15183 | 17078 ft | 342 kts | 253° |
| 2026-05-07 14:22 | 34.15816 | -117.17869 | 16870 ft | 331 kts | 252° |
| 2026-05-07 14:22 | 34.15102 | -117.20489 | 16525 ft | 326 kts | 251° |
| 2026-05-07 14:22 | 34.14385 | -117.23094 | 15717 ft | 325 kts | 251° |
| 2026-05-07 14:22 | 34.13672 | -117.25662 | 14991 ft | 320 kts | 252° |
| 2026-05-07 14:23 | 34.12967 | -117.28200 | 14270 ft | 316 kts | 252° |
| 2026-05-07 14:23 | 34.12272 | -117.30704 | 13523 ft | 313 kts | 253° |
| 2026-05-07 14:23 | 34.11586 | -117.33184 | 12788 ft | 310 kts | 254° |
| 2026-05-07 14:23 | 34.10904 | -117.35654 | 12103 ft | 309 kts | 254° |
| 2026-05-07 14:24 | 34.10234 | -117.38135 | 11919 ft | 312 kts | 255° |
| 2026-05-07 14:24 | 34.09605 | -117.40645 | 11674 ft | 312 kts | 256° |
| 2026-05-07 14:24 | 34.08986 | -117.43160 | 11671 ft | 313 kts | 256° |
| 2026-05-07 14:24 | 34.08361 | -117.45689 | 11666 ft | 313 kts | 256° |
| 2026-05-07 14:25 | 34.07735 | -117.48196 | 11621 ft | 308 kts | 255° |
| 2026-05-07 14:25 | 34.07036 | -117.50598 | 11442 ft | 300 kts | 251° |
| 2026-05-07 14:25 | 34.06233 | -117.52891 | 11249 ft | 292 kts | 250° |
| 2026-05-07 14:25 | 34.05431 | -117.55122 | 10927 ft | 289 kts | 250° |
| 2026-05-07 14:26 | 34.04632 | -117.57341 | 10529 ft | 288 kts | 250° |
| 2026-05-07 14:26 | 34.03834 | -117.59556 | 10249 ft | 284 kts | 250° |
| 2026-05-07 14:26 | 34.03053 | -117.61718 | 9949 ft | 280 kts | 250° |
| 2026-05-07 14:26 | 34.02273 | -117.63888 | 9497 ft | 283 kts | 250° |
| 2026-05-07 14:27 | 34.01485 | -117.66078 | 9049 ft | 286 kts | 250° |
| 2026-05-07 14:27 | 34.00950 | -117.68342 | 8583 ft | 284 kts | 264° |
| 2026-05-07 14:27 | 34.00787 | -117.69944 | 8285 ft | 285 kts | 267° |
| 2026-05-07 14:27 | 34.00547 | -117.73112 | 7685 ft | 288 kts | 268° |
| 2026-05-07 14:28 | 34.00350 | -117.75526 | 7238 ft | 290 kts | 267° |
| 2026-05-07 14:28 | 34.00130 | -117.77954 | 6774 ft | 291 kts | 266° |
| 2026-05-07 14:28 | 33.99896 | -117.80366 | 6330 ft | 290 kts | 265° |
| 2026-05-07 14:28 | 33.99653 | -117.82773 | 5886 ft | 289 kts | 265° |
| 2026-05-07 14:29 | 33.99485 | -117.84398 | 5477 ft | 286 kts | 265° |
| 2026-05-07 14:29 | 33.99161 | -117.87471 | 4859 ft | 272 kts | 265° |
| 2026-05-07 14:29 | 33.99001 | -117.88972 | 4680 ft | 261 kts | 265° |
| 2026-05-07 14:29 | 33.98771 | -117.91043 | 4653 ft | 237 kts | 264° |
| 2026-05-07 14:30 | 33.98562 | -117.92962 | 4673 ft | 227 kts | 266° |
| 2026-05-07 14:30 | 33.98392 | -117.94833 | 4763 ft | 227 kts | 266° |
| 2026-05-07 14:30 | 33.98214 | -117.96727 | 4688 ft | 227 kts | 266° |
| 2026-05-07 14:30 | 33.98026 | -117.98611 | 4677 ft | 227 kts | 266° |
| 2026-05-07 14:31 | 33.97830 | -118.00490 | 4650 ft | 223 kts | 265° |
| 2026-05-07 14:31 | 33.97634 | -118.02317 | 4449 ft | 215 kts | 265° |
| 2026-05-07 14:31 | 33.97442 | -118.04068 | 4274 ft | 206 kts | 265° |
| 2026-05-07 14:31 | 33.97256 | -118.05754 | 4104 ft | 198 kts | 265° |
| 2026-05-07 14:32 | 33.97078 | -118.07368 | 3942 ft | 191 kts | 265° |
| 2026-05-07 14:32 | 33.96905 | -118.08926 | 3776 ft | 184 kts | 266° |
| 2026-05-07 14:32 | 33.96740 | -118.10423 | 3672 ft | 176 kts | 266° |
| 2026-05-07 14:32 | 33.96557 | -118.11821 | 3631 ft | 162 kts | 264° |
| 2026-05-07 14:33 | 33.96376 | -118.13140 | 3644 ft | 158 kts | 265° |
| 2026-05-07 14:33 | 33.96209 | -118.14446 | 3656 ft | 157 kts | 265° |
| 2026-05-07 14:33 | 33.96055 | -118.15752 | 3661 ft | 157 kts | 266° |
| 2026-05-07 14:33 | 33.95909 | -118.17062 | 3535 ft | 157 kts | 266° |
| 2026-05-07 14:34 | 33.95770 | -118.18370 | 3325 ft | 157 kts | 266° |
| 2026-05-07 14:34 | 33.95634 | -118.19673 | 3119 ft | 156 kts | 266° |
| 2026-05-07 14:34 | 33.95501 | -118.20974 | 2914 ft | 156 kts | 266° |
| 2026-05-07 14:34 | 33.95369 | -118.22270 | 2707 ft | 155 kts | 266° |
| 2026-05-07 14:35 | 33.95237 | -118.23559 | 2502 ft | 155 kts | 266° |
| 2026-05-07 14:35 | 33.95105 | -118.24858 | 2310 ft | 154 kts | 266° |
| 2026-05-07 14:35 | 33.94973 | -118.26158 | 2089 ft | 154 kts | 266° |
| 2026-05-07 14:35 | 33.94841 | -118.27440 | 1883 ft | 153 kts | 266° |
| 2026-05-07 14:36 | 33.94711 | -118.28716 | 1678 ft | 153 kts | 266° |
| 2026-05-07 14:36 | 33.94581 | -118.29986 | 1474 ft | 153 kts | 266° |
| 2026-05-07 14:36 | 33.94451 | -118.31256 | 1271 ft | 152 kts | 266° |
| 2026-05-07 14:36 | 33.94322 | -118.32521 | 1068 ft | 152 kts | 266° |
| 2026-05-07 14:37 | 33.94193 | -118.33783 | 868 ft | 151 kts | 266° |
| 2026-05-07 14:37 | 33.93937 | -118.36295 | 462 ft | 151 kts | 265° |
| 2026-05-07 14:37 | 33.93807 | -118.37553 | 269 ft | 155 kts | 265° |
| 2026-05-07 14:38 | 33.93678 | -118.38811 | 105 ft | 142 kts | 264° |
| 2026-05-07 14:38 | 33.93578 | -118.39823 | 106 ft | 95 kts | 263° |
| 2026-05-07 14:38 | 33.93619 | -118.40372 | 105 ft | 37 kts | 282° |
| 2026-05-07 14:38 | 33.93610 | -118.40578 | 106 ft | 16 kts | 263° |
| 2026-05-07 14:39 | 33.93604 | -118.40641 | 102 ft | 8 kts | 263° |
| 2026-05-07 14:39 | 33.93596 | -118.40727 | 105 ft | 12 kts | 263° |
| 2026-05-07 14:39 | 33.93599 | -118.40807 | 104 ft | 0 kts | 284° |
| 2026-05-07 14:40 | 33.93608 | -118.40845 | 105 ft | 12 kts | 292° |
| 2026-05-07 14:40 | 33.93726 | -118.40901 | 104 ft | 20 kts | 352° |
| 2026-05-07 14:41 | 33.93793 | -118.40913 | 103 ft | 8 kts | 351° |
| 2026-05-07 14:41 | 33.93850 | -118.40954 | 104 ft | 10 kts | 301° |
| 2026-05-07 14:41 | 33.93854 | -118.41053 | 102 ft | 13 kts | 265° |
| 2026-05-07 14:41 | 33.93883 | -118.41153 | 102 ft | 15 kts | 326° |
| 2026-05-07 14:42 | 33.93956 | -118.41175 | 104 ft | 2 kts | 352° |
| 2026-05-07 14:42 | 33.93986 | -118.41179 | 102 ft | 4 kts | 352° |
| 2026-05-07 14:42 | 33.94012 | -118.41165 | 102 ft | 5 kts | 56° |
| 2026-05-07 14:42 | 33.94017 | -118.41121 | 102 ft | 2 kts | 85° |
| 2026-05-07 14:43 | 33.94019 | -118.41089 | 101 ft | 4 kts | 83° |
| 2026-05-07 14:43 | 33.94020 | -118.41082 | 101 ft | 0 kts | 83° |
| 2026-05-07 14:43 | 33.94020 | -118.41081 | 101 ft | 0 kts | 83° |